<?xml version="1.0" encoding="UTF-8" standalone="no" ?>
<gpx xmlns="http://www.topografix.com/GPX/1/1" creator="MapSource 6.15.3" version="1.1" xmlns:xsi="http://www.w3.org/2001/XMLSchema-instance" xsi:schemaLocation="http://www.topografix.com/GPX/1/1 http://www.topografix.com/GPX/1/1/gpx.xsd">

  <metadata>
    <link href="http://www.garmin.com">
      <text>Garmin International</text>
    </link>
    <time>2009-04-16T06:41:04Z</time>
    <bounds maxlat="45.8908367" maxlon="8.5736704" minlat="45.7846427" minlon="8.4555888"/>
  </metadata>

  <wpt lat="45.7869333" lon="8.5403667">
    <name>ARRIVO</name>
    <sym>Diamond, Green</sym>
    <extensions>
      <gpxx:WaypointExtension xmlns:gpxx="http://www.garmin.com/xmlschemas/GpxExtensions/v3">
        <gpxx:DisplayMode>SymbolAndName</gpxx:DisplayMode>
      </gpxx:WaypointExtension>
    </extensions>
  </wpt>

  <wpt lat="45.7860667" lon="8.5406334">
    <name>PARTENZA</name>
    <sym>Trail Head</sym>
    <extensions>
      <gpxx:WaypointExtension xmlns:gpxx="http://www.garmin.com/xmlschemas/GpxExtensions/v3">
        <gpxx:DisplayMode>SymbolAndName</gpxx:DisplayMode>
      </gpxx:WaypointExtension>
    </extensions>
  </wpt>

  <trk>
    <name>ACTIVE LOG</name>
    <extensions>
      <gpxx:TrackExtension xmlns:gpxx="http://www.garmin.com/xmlschemas/GpxExtensions/v3">
        <gpxx:DisplayColor>White</gpxx:DisplayColor>
      </gpxx:TrackExtension>
    </extensions>
    <trkseg>
      <trkpt lat="45.7860589" lon="8.5406256">
        <ele>190.4783936</ele>
        <time>2008-06-01T07:57:43Z</time>
      </trkpt>
      <trkpt lat="45.7860160" lon="8.5406256">
        <ele>200.5722656</ele>
        <time>2008-06-01T07:57:52Z</time>
      </trkpt>
      <trkpt lat="45.7860589" lon="8.5405612">
        <ele>200.5722656</ele>
        <time>2008-06-01T07:57:56Z</time>
      </trkpt>
      <trkpt lat="45.7862306" lon="8.5404325">
        <ele>200.5722656</ele>
        <time>2008-06-01T07:58:05Z</time>
      </trkpt>
      <trkpt lat="45.7867026" lon="8.5402393">
        <ele>200.0916748</ele>
        <time>2008-06-01T07:58:19Z</time>
      </trkpt>
      <trkpt lat="45.7871532" lon="8.5400677">
        <ele>200.0916748</ele>
        <time>2008-06-01T07:58:31Z</time>
      </trkpt>
      <trkpt lat="45.7874537" lon="8.5399818">
        <ele>199.1301270</ele>
        <time>2008-06-01T07:58:38Z</time>
      </trkpt>
      <trkpt lat="45.7880116" lon="8.5400248">
        <ele>202.0142822</ele>
        <time>2008-06-01T07:58:50Z</time>
      </trkpt>
      <trkpt lat="45.7888484" lon="8.5402179">
        <ele>202.0142822</ele>
        <time>2008-06-01T07:59:08Z</time>
      </trkpt>
      <trkpt lat="45.7892346" lon="8.5400677">
        <ele>202.0142822</ele>
        <time>2008-06-01T07:59:16Z</time>
      </trkpt>
      <trkpt lat="45.7893634" lon="8.5400033">
        <ele>202.0142822</ele>
        <time>2008-06-01T07:59:19Z</time>
      </trkpt>
      <trkpt lat="45.7899213" lon="8.5396600">
        <ele>201.0528564</ele>
        <time>2008-06-01T07:59:33Z</time>
      </trkpt>
      <trkpt lat="45.7904577" lon="8.5394025">
        <ele>200.5722656</ele>
        <time>2008-06-01T07:59:46Z</time>
      </trkpt>
      <trkpt lat="45.7909727" lon="8.5394883">
        <ele>198.6495361</ele>
        <time>2008-06-01T07:59:57Z</time>
      </trkpt>
      <trkpt lat="45.7912087" lon="8.5395312">
        <ele>198.6495361</ele>
        <time>2008-06-01T08:00:02Z</time>
      </trkpt>
      <trkpt lat="45.7915521" lon="8.5394025">
        <ele>199.1301270</ele>
        <time>2008-06-01T08:00:10Z</time>
      </trkpt>
      <trkpt lat="45.7925177" lon="8.5390592">
        <ele>199.1301270</ele>
        <time>2008-06-01T08:00:32Z</time>
      </trkpt>
      <trkpt lat="45.7930541" lon="8.5388446">
        <ele>201.0528564</ele>
        <time>2008-06-01T08:00:44Z</time>
      </trkpt>
      <trkpt lat="45.7938480" lon="8.5385442">
        <ele>200.5722656</ele>
        <time>2008-06-01T08:01:01Z</time>
      </trkpt>
      <trkpt lat="45.7946420" lon="8.5382438">
        <ele>198.6495361</ele>
        <time>2008-06-01T08:01:18Z</time>
      </trkpt>
      <trkpt lat="45.7955003" lon="8.5379219">
        <ele>197.6882324</ele>
        <time>2008-06-01T08:01:36Z</time>
      </trkpt>
      <trkpt lat="45.7961226" lon="8.5376644">
        <ele>197.6882324</ele>
        <time>2008-06-01T08:01:49Z</time>
      </trkpt>
      <trkpt lat="45.7966590" lon="8.5375786">
        <ele>196.7269287</ele>
        <time>2008-06-01T08:02:00Z</time>
      </trkpt>
      <trkpt lat="45.7972169" lon="8.5376644">
        <ele>197.6882324</ele>
        <time>2008-06-01T08:02:11Z</time>
      </trkpt>
      <trkpt lat="45.7976675" lon="8.5375571">
        <ele>198.6495361</ele>
        <time>2008-06-01T08:02:20Z</time>
      </trkpt>
      <trkpt lat="45.7985258" lon="8.5372996">
        <ele>200.0916748</ele>
        <time>2008-06-01T08:02:37Z</time>
      </trkpt>
      <trkpt lat="45.7988262" lon="8.5372353">
        <ele>199.6108398</ele>
        <time>2008-06-01T08:02:43Z</time>
      </trkpt>
      <trkpt lat="45.7993412" lon="8.5373855">
        <ele>199.1301270</ele>
        <time>2008-06-01T08:02:53Z</time>
      </trkpt>
      <trkpt lat="45.8000493" lon="8.5377502">
        <ele>201.0528564</ele>
        <time>2008-06-01T08:03:08Z</time>
      </trkpt>
      <trkpt lat="45.8005428" lon="8.5379863">
        <ele>203.9368896</ele>
        <time>2008-06-01T08:03:19Z</time>
      </trkpt>
      <trkpt lat="45.8009720" lon="8.5382009">
        <ele>205.8594971</ele>
        <time>2008-06-01T08:03:29Z</time>
      </trkpt>
      <trkpt lat="45.8014655" lon="8.5384583">
        <ele>207.3013916</ele>
        <time>2008-06-01T08:03:40Z</time>
      </trkpt>
      <trkpt lat="45.8018088" lon="8.5386944">
        <ele>208.2628174</ele>
        <time>2008-06-01T08:03:48Z</time>
      </trkpt>
      <trkpt lat="45.8023667" lon="8.5391665">
        <ele>208.7434082</ele>
        <time>2008-06-01T08:04:02Z</time>
      </trkpt>
      <trkpt lat="45.8029890" lon="8.5397243">
        <ele>208.7434082</ele>
        <time>2008-06-01T08:04:15Z</time>
      </trkpt>
      <trkpt lat="45.8037615" lon="8.5403681">
        <ele>208.2628174</ele>
        <time>2008-06-01T08:04:29Z</time>
      </trkpt>
      <trkpt lat="45.8038902" lon="8.5404325">
        <ele>207.7821045</ele>
        <time>2008-06-01T08:04:31Z</time>
      </trkpt>
      <trkpt lat="45.8044696" lon="8.5405183">
        <ele>206.8206787</ele>
        <time>2008-06-01T08:04:40Z</time>
      </trkpt>
      <trkpt lat="45.8051991" lon="8.5405612">
        <ele>204.8980713</ele>
        <time>2008-06-01T08:04:51Z</time>
      </trkpt>
      <trkpt lat="45.8059502" lon="8.5406256">
        <ele>201.0528564</ele>
        <time>2008-06-01T08:05:01Z</time>
      </trkpt>
      <trkpt lat="45.8061862" lon="8.5406685">
        <ele>200.5722656</ele>
        <time>2008-06-01T08:05:04Z</time>
      </trkpt>
      <trkpt lat="45.8065081" lon="8.5408831">
        <ele>200.0916748</ele>
        <time>2008-06-01T08:05:09Z</time>
      </trkpt>
      <trkpt lat="45.8067870" lon="8.5412049">
        <ele>199.1301270</ele>
        <time>2008-06-01T08:05:14Z</time>
      </trkpt>
      <trkpt lat="45.8068514" lon="8.5413551">
        <ele>198.6495361</ele>
        <time>2008-06-01T08:05:16Z</time>
      </trkpt>
      <trkpt lat="45.8070230" lon="8.5417628">
        <ele>198.6495361</ele>
        <time>2008-06-01T08:05:21Z</time>
      </trkpt>
      <trkpt lat="45.8072376" lon="8.5426211">
        <ele>199.1301270</ele>
        <time>2008-06-01T08:05:31Z</time>
      </trkpt>
      <trkpt lat="45.8075809" lon="8.5432649">
        <ele>199.6108398</ele>
        <time>2008-06-01T08:05:40Z</time>
      </trkpt>
      <trkpt lat="45.8077312" lon="8.5433936">
        <ele>199.1301270</ele>
        <time>2008-06-01T08:05:43Z</time>
      </trkpt>
      <trkpt lat="45.8086538" lon="8.5436940">
        <ele>198.6495361</ele>
        <time>2008-06-01T08:05:58Z</time>
      </trkpt>
      <trkpt lat="45.8088470" lon="8.5437155">
        <ele>198.6495361</ele>
        <time>2008-06-01T08:06:01Z</time>
      </trkpt>
      <trkpt lat="45.8095336" lon="8.5436082">
        <ele>198.1689453</ele>
        <time>2008-06-01T08:06:12Z</time>
      </trkpt>
      <trkpt lat="45.8103275" lon="8.5434365">
        <ele>198.6495361</ele>
        <time>2008-06-01T08:06:24Z</time>
      </trkpt>
      <trkpt lat="45.8106065" lon="8.5433722">
        <ele>198.1689453</ele>
        <time>2008-06-01T08:06:28Z</time>
      </trkpt>
      <trkpt lat="45.8115721" lon="8.5435653">
        <ele>197.6882324</ele>
        <time>2008-06-01T08:06:42Z</time>
      </trkpt>
      <trkpt lat="45.8122373" lon="8.5439301">
        <ele>198.1689453</ele>
        <time>2008-06-01T08:06:52Z</time>
      </trkpt>
      <trkpt lat="45.8129668" lon="8.5445094">
        <ele>198.1689453</ele>
        <time>2008-06-01T08:07:04Z</time>
      </trkpt>
      <trkpt lat="45.8138895" lon="8.5450029">
        <ele>197.2075195</ele>
        <time>2008-06-01T08:07:18Z</time>
      </trkpt>
      <trkpt lat="45.8149409" lon="8.5455394">
        <ele>196.7269287</ele>
        <time>2008-06-01T08:07:34Z</time>
      </trkpt>
      <trkpt lat="45.8155847" lon="8.5462046">
        <ele>197.6882324</ele>
        <time>2008-06-01T08:07:45Z</time>
      </trkpt>
      <trkpt lat="45.8161855" lon="8.5471058">
        <ele>197.6882324</ele>
        <time>2008-06-01T08:07:57Z</time>
      </trkpt>
      <trkpt lat="45.8163786" lon="8.5477495">
        <ele>198.1689453</ele>
        <time>2008-06-01T08:08:04Z</time>
      </trkpt>
      <trkpt lat="45.8165073" lon="8.5485435">
        <ele>199.6108398</ele>
        <time>2008-06-01T08:08:12Z</time>
      </trkpt>
      <trkpt lat="45.8165288" lon="8.5486293">
        <ele>199.6108398</ele>
        <time>2008-06-01T08:08:13Z</time>
      </trkpt>
      <trkpt lat="45.8168292" lon="8.5491872">
        <ele>200.5722656</ele>
        <time>2008-06-01T08:08:20Z</time>
      </trkpt>
      <trkpt lat="45.8169794" lon="8.5493803">
        <ele>201.5335693</ele>
        <time>2008-06-01T08:08:23Z</time>
      </trkpt>
      <trkpt lat="45.8173013" lon="8.5498953">
        <ele>202.4948730</ele>
        <time>2008-06-01T08:08:30Z</time>
      </trkpt>
      <trkpt lat="45.8178163" lon="8.5506678">
        <ele>204.8980713</ele>
        <time>2008-06-01T08:08:41Z</time>
      </trkpt>
      <trkpt lat="45.8183098" lon="8.5514617">
        <ele>205.8594971</ele>
        <time>2008-06-01T08:08:52Z</time>
      </trkpt>
      <trkpt lat="45.8188677" lon="8.5522985">
        <ele>207.3013916</ele>
        <time>2008-06-01T08:09:04Z</time>
      </trkpt>
      <trkpt lat="45.8193612" lon="8.5530710">
        <ele>208.7434082</ele>
        <time>2008-06-01T08:09:15Z</time>
      </trkpt>
      <trkpt lat="45.8197260" lon="8.5536289">
        <ele>210.1854248</ele>
        <time>2008-06-01T08:09:23Z</time>
      </trkpt>
      <trkpt lat="45.8200908" lon="8.5541868">
        <ele>211.1467285</ele>
        <time>2008-06-01T08:09:32Z</time>
      </trkpt>
      <trkpt lat="45.8206058" lon="8.5549164">
        <ele>211.6274414</ele>
        <time>2008-06-01T08:09:46Z</time>
      </trkpt>
      <trkpt lat="45.8210135" lon="8.5555387">
        <ele>212.1080322</ele>
        <time>2008-06-01T08:09:59Z</time>
      </trkpt>
      <trkpt lat="45.8213782" lon="8.5560751">
        <ele>213.0693359</ele>
        <time>2008-06-01T08:10:12Z</time>
      </trkpt>
      <trkpt lat="45.8216143" lon="8.5564399">
        <ele>213.5500488</ele>
        <time>2008-06-01T08:10:20Z</time>
      </trkpt>
      <trkpt lat="45.8220649" lon="8.5571051">
        <ele>214.9919434</ele>
        <time>2008-06-01T08:10:35Z</time>
      </trkpt>
      <trkpt lat="45.8225155" lon="8.5577917">
        <ele>215.4726563</ele>
        <time>2008-06-01T08:10:50Z</time>
      </trkpt>
      <trkpt lat="45.8229017" lon="8.5584140">
        <ele>214.5112305</ele>
        <time>2008-06-01T08:11:03Z</time>
      </trkpt>
      <trkpt lat="45.8233094" lon="8.5590148">
        <ele>214.5112305</ele>
        <time>2008-06-01T08:11:15Z</time>
      </trkpt>
      <trkpt lat="45.8237386" lon="8.5596585">
        <ele>214.5112305</ele>
        <time>2008-06-01T08:11:28Z</time>
      </trkpt>
      <trkpt lat="45.8242536" lon="8.5604310">
        <ele>213.5500488</ele>
        <time>2008-06-01T08:11:42Z</time>
      </trkpt>
      <trkpt lat="45.8248758" lon="8.5613966">
        <ele>212.5886230</ele>
        <time>2008-06-01T08:11:59Z</time>
      </trkpt>
      <trkpt lat="45.8254123" lon="8.5621905">
        <ele>212.1080322</ele>
        <time>2008-06-01T08:12:13Z</time>
      </trkpt>
      <trkpt lat="45.8260131" lon="8.5631347">
        <ele>209.7048340</ele>
        <time>2008-06-01T08:12:29Z</time>
      </trkpt>
      <trkpt lat="45.8264208" lon="8.5637569">
        <ele>207.7821045</ele>
        <time>2008-06-01T08:12:39Z</time>
      </trkpt>
      <trkpt lat="45.8270216" lon="8.5646367">
        <ele>206.3400879</ele>
        <time>2008-06-01T08:12:53Z</time>
      </trkpt>
      <trkpt lat="45.8276010" lon="8.5655165">
        <ele>204.8980713</ele>
        <time>2008-06-01T08:13:05Z</time>
      </trkpt>
      <trkpt lat="45.8279443" lon="8.5660100">
        <ele>204.8980713</ele>
        <time>2008-06-01T08:13:11Z</time>
      </trkpt>
      <trkpt lat="45.8283520" lon="8.5660529">
        <ele>203.9368896</ele>
        <time>2008-06-01T08:13:16Z</time>
      </trkpt>
      <trkpt lat="45.8285236" lon="8.5659671">
        <ele>203.4561768</ele>
        <time>2008-06-01T08:13:18Z</time>
      </trkpt>
      <trkpt lat="45.8292532" lon="8.5655165">
        <ele>201.5335693</ele>
        <time>2008-06-01T08:13:29Z</time>
      </trkpt>
      <trkpt lat="45.8297682" lon="8.5651517">
        <ele>201.5335693</ele>
        <time>2008-06-01T08:13:39Z</time>
      </trkpt>
      <trkpt lat="45.8298755" lon="8.5650873">
        <ele>201.0528564</ele>
        <time>2008-06-01T08:13:41Z</time>
      </trkpt>
      <trkpt lat="45.8305192" lon="8.5649157">
        <ele>202.0142822</ele>
        <time>2008-06-01T08:13:53Z</time>
      </trkpt>
      <trkpt lat="45.8306050" lon="8.5649157">
        <ele>202.0142822</ele>
        <time>2008-06-01T08:13:55Z</time>
      </trkpt>
      <trkpt lat="45.8308196" lon="8.5649800">
        <ele>201.5335693</ele>
        <time>2008-06-01T08:13:59Z</time>
      </trkpt>
      <trkpt lat="45.8312273" lon="8.5653877">
        <ele>201.0528564</ele>
        <time>2008-06-01T08:14:09Z</time>
      </trkpt>
      <trkpt lat="45.8317852" lon="8.5660315">
        <ele>200.5722656</ele>
        <time>2008-06-01T08:14:24Z</time>
      </trkpt>
      <trkpt lat="45.8323002" lon="8.5665894">
        <ele>201.0528564</ele>
        <time>2008-06-01T08:14:37Z</time>
      </trkpt>
      <trkpt lat="45.8329225" lon="8.5672760">
        <ele>200.0916748</ele>
        <time>2008-06-01T08:14:52Z</time>
      </trkpt>
      <trkpt lat="45.8335018" lon="8.5679412">
        <ele>198.6495361</ele>
        <time>2008-06-01T08:15:06Z</time>
      </trkpt>
      <trkpt lat="45.8340383" lon="8.5685205">
        <ele>199.1301270</ele>
        <time>2008-06-01T08:15:19Z</time>
      </trkpt>
      <trkpt lat="45.8345103" lon="8.5689282">
        <ele>199.6108398</ele>
        <time>2008-06-01T08:15:30Z</time>
      </trkpt>
      <trkpt lat="45.8352613" lon="8.5693789">
        <ele>198.6495361</ele>
        <time>2008-06-01T08:15:46Z</time>
      </trkpt>
      <trkpt lat="45.8357334" lon="8.5698080">
        <ele>198.1689453</ele>
        <time>2008-06-01T08:15:57Z</time>
      </trkpt>
      <trkpt lat="45.8362055" lon="8.5704732">
        <ele>197.6882324</ele>
        <time>2008-06-01T08:16:10Z</time>
      </trkpt>
      <trkpt lat="45.8366132" lon="8.5709453">
        <ele>197.2075195</ele>
        <time>2008-06-01T08:16:20Z</time>
      </trkpt>
      <trkpt lat="45.8370852" lon="8.5712671">
        <ele>197.6882324</ele>
        <time>2008-06-01T08:16:30Z</time>
      </trkpt>
      <trkpt lat="45.8374286" lon="8.5714388">
        <ele>197.2075195</ele>
        <time>2008-06-01T08:16:37Z</time>
      </trkpt>
      <trkpt lat="45.8381796" lon="8.5719752">
        <ele>197.6882324</ele>
        <time>2008-06-01T08:16:53Z</time>
      </trkpt>
      <trkpt lat="45.8388019" lon="8.5725546">
        <ele>197.6882324</ele>
        <time>2008-06-01T08:17:07Z</time>
      </trkpt>
      <trkpt lat="45.8395100" lon="8.5731983">
        <ele>197.6882324</ele>
        <time>2008-06-01T08:17:23Z</time>
      </trkpt>
      <trkpt lat="45.8400035" lon="8.5734558">
        <ele>198.1689453</ele>
        <time>2008-06-01T08:17:33Z</time>
      </trkpt>
      <trkpt lat="45.8406901" lon="8.5736704">
        <ele>198.6495361</ele>
        <time>2008-06-01T08:17:47Z</time>
      </trkpt>
      <trkpt lat="45.8411407" lon="8.5736060">
        <ele>199.6108398</ele>
        <time>2008-06-01T08:17:56Z</time>
      </trkpt>
      <trkpt lat="45.8417845" lon="8.5734558">
        <ele>200.5722656</ele>
        <time>2008-06-01T08:18:09Z</time>
      </trkpt>
      <trkpt lat="45.8425570" lon="8.5732198">
        <ele>200.0916748</ele>
        <time>2008-06-01T08:18:25Z</time>
      </trkpt>
      <trkpt lat="45.8430934" lon="8.5730696">
        <ele>200.0916748</ele>
        <time>2008-06-01T08:18:36Z</time>
      </trkpt>
      <trkpt lat="45.8438659" lon="8.5727048">
        <ele>201.0528564</ele>
        <time>2008-06-01T08:18:52Z</time>
      </trkpt>
      <trkpt lat="45.8445740" lon="8.5724258">
        <ele>201.0528564</ele>
        <time>2008-06-01T08:19:06Z</time>
      </trkpt>
      <trkpt lat="45.8451962" lon="8.5723829">
        <ele>200.5722656</ele>
        <time>2008-06-01T08:19:18Z</time>
      </trkpt>
      <trkpt lat="45.8456683" lon="8.5721898">
        <ele>200.5722656</ele>
        <time>2008-06-01T08:19:28Z</time>
      </trkpt>
      <trkpt lat="45.8465052" lon="8.5717607">
        <ele>199.6108398</ele>
        <time>2008-06-01T08:19:45Z</time>
      </trkpt>
      <trkpt lat="45.8472347" lon="8.5713744">
        <ele>198.6495361</ele>
        <time>2008-06-01T08:19:59Z</time>
      </trkpt>
      <trkpt lat="45.8477926" lon="8.5710955">
        <ele>200.0916748</ele>
        <time>2008-06-01T08:20:11Z</time>
      </trkpt>
      <trkpt lat="45.8486938" lon="8.5709023">
        <ele>201.0528564</ele>
        <time>2008-06-01T08:20:27Z</time>
      </trkpt>
      <trkpt lat="45.8493805" lon="8.5707092">
        <ele>201.0528564</ele>
        <time>2008-06-01T08:20:40Z</time>
      </trkpt>
      <trkpt lat="45.8499384" lon="8.5704303">
        <ele>200.0916748</ele>
        <time>2008-06-01T08:20:51Z</time>
      </trkpt>
      <trkpt lat="45.8504963" lon="8.5700870">
        <ele>200.5722656</ele>
        <time>2008-06-01T08:21:02Z</time>
      </trkpt>
      <trkpt lat="45.8507538" lon="8.5699582">
        <ele>200.0916748</ele>
        <time>2008-06-01T08:21:07Z</time>
      </trkpt>
      <trkpt lat="45.8514190" lon="8.5698080">
        <ele>200.5722656</ele>
        <time>2008-06-01T08:21:19Z</time>
      </trkpt>
      <trkpt lat="45.8521271" lon="8.5698295">
        <ele>199.1301270</ele>
        <time>2008-06-01T08:21:32Z</time>
      </trkpt>
      <trkpt lat="45.8527923" lon="8.5696578">
        <ele>198.6495361</ele>
        <time>2008-06-01T08:21:44Z</time>
      </trkpt>
      <trkpt lat="45.8537149" lon="8.5694003">
        <ele>199.1301270</ele>
        <time>2008-06-01T08:22:00Z</time>
      </trkpt>
      <trkpt lat="45.8542943" lon="8.5692501">
        <ele>200.0916748</ele>
        <time>2008-06-01T08:22:10Z</time>
      </trkpt>
      <trkpt lat="45.8551097" lon="8.5689712">
        <ele>200.0916748</ele>
        <time>2008-06-01T08:22:24Z</time>
      </trkpt>
      <trkpt lat="45.8560324" lon="8.5686707">
        <ele>200.5722656</ele>
        <time>2008-06-01T08:22:40Z</time>
      </trkpt>
      <trkpt lat="45.8569121" lon="8.5683918">
        <ele>200.0916748</ele>
        <time>2008-06-01T08:22:55Z</time>
      </trkpt>
      <trkpt lat="45.8577704" lon="8.5683274">
        <ele>200.5722656</ele>
        <time>2008-06-01T08:23:09Z</time>
      </trkpt>
      <trkpt lat="45.8585000" lon="8.5682416">
        <ele>200.5722656</ele>
        <time>2008-06-01T08:23:21Z</time>
      </trkpt>
      <trkpt lat="45.8592939" lon="8.5680914">
        <ele>201.0528564</ele>
        <time>2008-06-01T08:23:34Z</time>
      </trkpt>
      <trkpt lat="45.8601093" lon="8.5678554">
        <ele>201.0528564</ele>
        <time>2008-06-01T08:23:47Z</time>
      </trkpt>
      <trkpt lat="45.8607960" lon="8.5676622">
        <ele>201.0528564</ele>
        <time>2008-06-01T08:23:58Z</time>
      </trkpt>
      <trkpt lat="45.8613539" lon="8.5674906">
        <ele>201.5335693</ele>
        <time>2008-06-01T08:24:07Z</time>
      </trkpt>
      <trkpt lat="45.8621907" lon="8.5674477">
        <ele>200.0916748</ele>
        <time>2008-06-01T08:24:20Z</time>
      </trkpt>
      <trkpt lat="45.8631778" lon="8.5674262">
        <ele>198.1689453</ele>
        <time>2008-06-01T08:24:36Z</time>
      </trkpt>
      <trkpt lat="45.8640790" lon="8.5672975">
        <ele>198.6495361</ele>
        <time>2008-06-01T08:24:51Z</time>
      </trkpt>
      <trkpt lat="45.8648515" lon="8.5671902">
        <ele>199.6108398</ele>
        <time>2008-06-01T08:25:05Z</time>
      </trkpt>
      <trkpt lat="45.8652806" lon="8.5669756">
        <ele>200.0916748</ele>
        <time>2008-06-01T08:25:13Z</time>
      </trkpt>
      <trkpt lat="45.8662033" lon="8.5663319">
        <ele>200.0916748</ele>
        <time>2008-06-01T08:25:30Z</time>
      </trkpt>
      <trkpt lat="45.8669758" lon="8.5658383">
        <ele>199.6108398</ele>
        <time>2008-06-01T08:25:44Z</time>
      </trkpt>
      <trkpt lat="45.8679628" lon="8.5653663">
        <ele>200.0916748</ele>
        <time>2008-06-01T08:26:01Z</time>
      </trkpt>
      <trkpt lat="45.8689499" lon="8.5650015">
        <ele>201.0528564</ele>
        <time>2008-06-01T08:26:18Z</time>
      </trkpt>
      <trkpt lat="45.8696795" lon="8.5647225">
        <ele>200.5722656</ele>
        <time>2008-06-01T08:26:31Z</time>
      </trkpt>
      <trkpt lat="45.8702374" lon="8.5644865">
        <ele>200.0916748</ele>
        <time>2008-06-01T08:26:43Z</time>
      </trkpt>
      <trkpt lat="45.8707523" lon="8.5642719">
        <ele>199.6108398</ele>
        <time>2008-06-01T08:26:55Z</time>
      </trkpt>
      <trkpt lat="45.8710742" lon="8.5640359">
        <ele>199.6108398</ele>
        <time>2008-06-01T08:27:03Z</time>
      </trkpt>
      <trkpt lat="45.8713746" lon="8.5636067">
        <ele>199.1301270</ele>
        <time>2008-06-01T08:27:12Z</time>
      </trkpt>
      <trkpt lat="45.8716106" lon="8.5632420">
        <ele>198.6495361</ele>
        <time>2008-06-01T08:27:19Z</time>
      </trkpt>
      <trkpt lat="45.8720613" lon="8.5629416">
        <ele>198.6495361</ele>
        <time>2008-06-01T08:27:29Z</time>
      </trkpt>
      <trkpt lat="45.8725548" lon="8.5626626">
        <ele>199.6108398</ele>
        <time>2008-06-01T08:27:39Z</time>
      </trkpt>
      <trkpt lat="45.8731341" lon="8.5623193">
        <ele>200.5722656</ele>
        <time>2008-06-01T08:27:51Z</time>
      </trkpt>
      <trkpt lat="45.8734345" lon="8.5619545">
        <ele>200.5722656</ele>
        <time>2008-06-01T08:27:59Z</time>
      </trkpt>
      <trkpt lat="45.8737993" lon="8.5614181">
        <ele>200.0916748</ele>
        <time>2008-06-01T08:28:09Z</time>
      </trkpt>
      <trkpt lat="45.8741426" lon="8.5609889">
        <ele>200.5722656</ele>
        <time>2008-06-01T08:28:18Z</time>
      </trkpt>
      <trkpt lat="45.8746147" lon="8.5605597">
        <ele>200.5722656</ele>
        <time>2008-06-01T08:28:29Z</time>
      </trkpt>
      <trkpt lat="45.8753014" lon="8.5599160">
        <ele>200.0916748</ele>
        <time>2008-06-01T08:28:45Z</time>
      </trkpt>
      <trkpt lat="45.8758593" lon="8.5593796">
        <ele>201.0528564</ele>
        <time>2008-06-01T08:28:58Z</time>
      </trkpt>
      <trkpt lat="45.8763742" lon="8.5588646">
        <ele>201.0528564</ele>
        <time>2008-06-01T08:29:10Z</time>
      </trkpt>
      <trkpt lat="45.8768678" lon="8.5584140">
        <ele>200.5722656</ele>
        <time>2008-06-01T08:29:21Z</time>
      </trkpt>
      <trkpt lat="45.8774042" lon="8.5577917">
        <ele>200.0916748</ele>
        <time>2008-06-01T08:29:34Z</time>
      </trkpt>
      <trkpt lat="45.8778334" lon="8.5571694">
        <ele>201.0528564</ele>
        <time>2008-06-01T08:29:45Z</time>
      </trkpt>
      <trkpt lat="45.8783269" lon="8.5564613">
        <ele>200.5722656</ele>
        <time>2008-06-01T08:29:58Z</time>
      </trkpt>
      <trkpt lat="45.8788419" lon="8.5559034">
        <ele>201.5335693</ele>
        <time>2008-06-01T08:30:10Z</time>
      </trkpt>
      <trkpt lat="45.8791852" lon="8.5554099">
        <ele>201.5335693</ele>
        <time>2008-06-01T08:30:19Z</time>
      </trkpt>
      <trkpt lat="45.8795929" lon="8.5544443">
        <ele>200.5722656</ele>
        <time>2008-06-01T08:30:33Z</time>
      </trkpt>
      <trkpt lat="45.8800220" lon="8.5537362">
        <ele>200.5722656</ele>
        <time>2008-06-01T08:30:45Z</time>
      </trkpt>
      <trkpt lat="45.8804941" lon="8.5528994">
        <ele>200.0916748</ele>
        <time>2008-06-01T08:30:59Z</time>
      </trkpt>
      <trkpt lat="45.8808374" lon="8.5522127">
        <ele>200.0916748</ele>
        <time>2008-06-01T08:31:10Z</time>
      </trkpt>
      <trkpt lat="45.8809876" lon="8.5513759">
        <ele>200.5722656</ele>
        <time>2008-06-01T08:31:21Z</time>
      </trkpt>
      <trkpt lat="45.8811808" lon="8.5505176">
        <ele>201.5335693</ele>
        <time>2008-06-01T08:31:32Z</time>
      </trkpt>
      <trkpt lat="45.8813310" lon="8.5497022">
        <ele>201.5335693</ele>
        <time>2008-06-01T08:31:43Z</time>
      </trkpt>
      <trkpt lat="45.8816314" lon="8.5489297">
        <ele>201.0528564</ele>
        <time>2008-06-01T08:31:54Z</time>
      </trkpt>
      <trkpt lat="45.8820820" lon="8.5479426">
        <ele>200.5722656</ele>
        <time>2008-06-01T08:32:09Z</time>
      </trkpt>
      <trkpt lat="45.8825111" lon="8.5470629">
        <ele>200.5722656</ele>
        <time>2008-06-01T08:32:23Z</time>
      </trkpt>
      <trkpt lat="45.8829188" lon="8.5463762">
        <ele>199.6108398</ele>
        <time>2008-06-01T08:32:34Z</time>
      </trkpt>
      <trkpt lat="45.8830261" lon="8.5459042">
        <ele>199.6108398</ele>
        <time>2008-06-01T08:32:40Z</time>
      </trkpt>
      <trkpt lat="45.8831334" lon="8.5448956">
        <ele>200.0916748</ele>
        <time>2008-06-01T08:32:52Z</time>
      </trkpt>
      <trkpt lat="45.8832836" lon="8.5437155">
        <ele>199.6108398</ele>
        <time>2008-06-01T08:33:06Z</time>
      </trkpt>
      <trkpt lat="45.8833694" lon="8.5430717">
        <ele>199.6108398</ele>
        <time>2008-06-01T08:33:14Z</time>
      </trkpt>
      <trkpt lat="45.8835626" lon="8.5424709">
        <ele>200.0916748</ele>
        <time>2008-06-01T08:33:22Z</time>
      </trkpt>
      <trkpt lat="45.8836484" lon="8.5422564">
        <ele>200.0916748</ele>
        <time>2008-06-01T08:33:25Z</time>
      </trkpt>
      <trkpt lat="45.8837557" lon="8.5420632">
        <ele>200.5722656</ele>
        <time>2008-06-01T08:33:28Z</time>
      </trkpt>
      <trkpt lat="45.8839917" lon="8.5414839">
        <ele>199.6108398</ele>
        <time>2008-06-01T08:33:37Z</time>
      </trkpt>
      <trkpt lat="45.8840775" lon="8.5411620">
        <ele>199.6108398</ele>
        <time>2008-06-01T08:33:43Z</time>
      </trkpt>
      <trkpt lat="45.8842278" lon="8.5409689">
        <ele>199.6108398</ele>
        <time>2008-06-01T08:33:48Z</time>
      </trkpt>
      <trkpt lat="45.8844638" lon="8.5403466">
        <ele>199.1301270</ele>
        <time>2008-06-01T08:34:00Z</time>
      </trkpt>
      <trkpt lat="45.8846354" lon="8.5397458">
        <ele>199.6108398</ele>
        <time>2008-06-01T08:34:10Z</time>
      </trkpt>
      <trkpt lat="45.8848715" lon="8.5389090">
        <ele>200.0916748</ele>
        <time>2008-06-01T08:34:24Z</time>
      </trkpt>
      <trkpt lat="45.8850861" lon="8.5381579">
        <ele>200.0916748</ele>
        <time>2008-06-01T08:34:37Z</time>
      </trkpt>
      <trkpt lat="45.8851075" lon="8.5380292">
        <ele>200.0916748</ele>
        <time>2008-06-01T08:34:39Z</time>
      </trkpt>
      <trkpt lat="45.8853006" lon="8.5372996">
        <ele>200.0916748</ele>
        <time>2008-06-01T08:34:51Z</time>
      </trkpt>
      <trkpt lat="45.8854938" lon="8.5366130">
        <ele>199.6108398</ele>
        <time>2008-06-01T08:35:02Z</time>
      </trkpt>
      <trkpt lat="45.8856869" lon="8.5360336">
        <ele>199.6108398</ele>
        <time>2008-06-01T08:35:11Z</time>
      </trkpt>
      <trkpt lat="45.8860302" lon="8.5351324">
        <ele>200.0916748</ele>
        <time>2008-06-01T08:35:25Z</time>
      </trkpt>
      <trkpt lat="45.8863306" lon="8.5344243">
        <ele>199.6108398</ele>
        <time>2008-06-01T08:35:36Z</time>
      </trkpt>
      <trkpt lat="45.8867168" lon="8.5337591">
        <ele>199.1301270</ele>
        <time>2008-06-01T08:35:48Z</time>
      </trkpt>
      <trkpt lat="45.8869100" lon="8.5334587">
        <ele>199.6108398</ele>
        <time>2008-06-01T08:35:55Z</time>
      </trkpt>
      <trkpt lat="45.8873820" lon="8.5327291">
        <ele>200.0916748</ele>
        <time>2008-06-01T08:36:09Z</time>
      </trkpt>
      <trkpt lat="45.8878112" lon="8.5320425">
        <ele>200.0916748</ele>
        <time>2008-06-01T08:36:21Z</time>
      </trkpt>
      <trkpt lat="45.8883262" lon="8.5312486">
        <ele>200.5722656</ele>
        <time>2008-06-01T08:36:35Z</time>
      </trkpt>
      <trkpt lat="45.8884120" lon="8.5309482">
        <ele>201.0528564</ele>
        <time>2008-06-01T08:36:39Z</time>
      </trkpt>
      <trkpt lat="45.8884549" lon="8.5304546">
        <ele>202.0142822</ele>
        <time>2008-06-01T08:36:46Z</time>
      </trkpt>
      <trkpt lat="45.8885837" lon="8.5301542">
        <ele>201.5335693</ele>
        <time>2008-06-01T08:36:52Z</time>
      </trkpt>
      <trkpt lat="45.8888412" lon="8.5296392">
        <ele>200.0916748</ele>
        <time>2008-06-01T08:37:01Z</time>
      </trkpt>
      <trkpt lat="45.8892059" lon="8.5288882">
        <ele>198.1689453</ele>
        <time>2008-06-01T08:37:13Z</time>
      </trkpt>
      <trkpt lat="45.8895063" lon="8.5282874">
        <ele>197.6882324</ele>
        <time>2008-06-01T08:37:22Z</time>
      </trkpt>
      <trkpt lat="45.8898067" lon="8.5277510">
        <ele>197.6882324</ele>
        <time>2008-06-01T08:37:31Z</time>
      </trkpt>
      <trkpt lat="45.8899784" lon="8.5275149">
        <ele>198.1689453</ele>
        <time>2008-06-01T08:37:38Z</time>
      </trkpt>
      <trkpt lat="45.8901930" lon="8.5273218">
        <ele>197.2075195</ele>
        <time>2008-06-01T08:37:46Z</time>
      </trkpt>
      <trkpt lat="45.8904076" lon="8.5270214">
        <ele>198.1689453</ele>
        <time>2008-06-01T08:37:54Z</time>
      </trkpt>
      <trkpt lat="45.8906651" lon="8.5266566">
        <ele>197.6882324</ele>
        <time>2008-06-01T08:38:03Z</time>
      </trkpt>
      <trkpt lat="45.8906865" lon="8.5265493">
        <ele>197.2075195</ele>
        <time>2008-06-01T08:38:05Z</time>
      </trkpt>
      <trkpt lat="45.8907294" lon="8.5263348">
        <ele>198.6495361</ele>
        <time>2008-06-01T08:38:09Z</time>
      </trkpt>
      <trkpt lat="45.8907509" lon="8.5260558">
        <ele>198.6495361</ele>
        <time>2008-06-01T08:38:14Z</time>
      </trkpt>
      <trkpt lat="45.8907938" lon="8.5259271">
        <ele>198.1689453</ele>
        <time>2008-06-01T08:38:16Z</time>
      </trkpt>
      <trkpt lat="45.8908367" lon="8.5254979">
        <ele>197.6882324</ele>
        <time>2008-06-01T08:38:23Z</time>
      </trkpt>
      <trkpt lat="45.8908367" lon="8.5252833">
        <ele>195.7656250</ele>
        <time>2008-06-01T08:38:29Z</time>
      </trkpt>
      <trkpt lat="45.8908367" lon="8.5252619">
        <ele>195.7656250</ele>
        <time>2008-06-01T08:38:30Z</time>
      </trkpt>
      <trkpt lat="45.8907509" lon="8.5251331">
        <ele>196.2463379</ele>
        <time>2008-06-01T08:38:34Z</time>
      </trkpt>
      <trkpt lat="45.8906221" lon="8.5247254">
        <ele>196.2463379</ele>
        <time>2008-06-01T08:38:43Z</time>
      </trkpt>
      <trkpt lat="45.8904934" lon="8.5241032">
        <ele>196.7269287</ele>
        <time>2008-06-01T08:38:57Z</time>
      </trkpt>
      <trkpt lat="45.8899570" lon="8.5184598">
        <ele>196.7269287</ele>
        <time>2008-06-01T09:13:02Z</time>
      </trkpt>
      <trkpt lat="45.8895707" lon="8.5188246">
        <ele>196.7269287</ele>
        <time>2008-06-01T09:13:04Z</time>
      </trkpt>
      <trkpt lat="45.8894205" lon="8.5186529">
        <ele>289.9748535</ele>
        <time>2008-06-01T09:13:07Z</time>
      </trkpt>
      <trkpt lat="45.8892703" lon="8.5180306">
        <ele>305.3559570</ele>
        <time>2008-06-01T09:13:18Z</time>
      </trkpt>
      <trkpt lat="45.8891201" lon="8.5172796">
        <ele>314.4884033</ele>
        <time>2008-06-01T09:13:32Z</time>
      </trkpt>
      <trkpt lat="45.8889055" lon="8.5161209">
        <ele>335.6373291</ele>
        <time>2008-06-01T09:13:54Z</time>
      </trkpt>
      <trkpt lat="45.8887768" lon="8.5155201">
        <ele>347.1732178</ele>
        <time>2008-06-01T09:14:05Z</time>
      </trkpt>
      <trkpt lat="45.8886695" lon="8.5150480">
        <ele>359.1896973</ele>
        <time>2008-06-01T09:14:14Z</time>
      </trkpt>
      <trkpt lat="45.8885193" lon="8.5143399">
        <ele>375.0515137</ele>
        <time>2008-06-01T09:14:27Z</time>
      </trkpt>
      <trkpt lat="45.8883262" lon="8.5135031">
        <ele>391.3937988</ele>
        <time>2008-06-01T09:14:42Z</time>
      </trkpt>
      <trkpt lat="45.8879828" lon="8.5121083">
        <ele>409.1783447</ele>
        <time>2008-06-01T09:15:05Z</time>
      </trkpt>
      <trkpt lat="45.8878541" lon="8.5112071">
        <ele>415.4268799</ele>
        <time>2008-06-01T09:15:20Z</time>
      </trkpt>
      <trkpt lat="45.8877683" lon="8.5106277">
        <ele>428.4046631</ele>
        <time>2008-06-01T09:15:31Z</time>
      </trkpt>
      <trkpt lat="45.8876824" lon="8.5100269">
        <ele>440.9018555</ele>
        <time>2008-06-01T09:15:41Z</time>
      </trkpt>
      <trkpt lat="45.8876824" lon="8.5099411">
        <ele>443.3050537</ele>
        <time>2008-06-01T09:15:43Z</time>
      </trkpt>
      <trkpt lat="45.8876610" lon="8.5097480">
        <ele>445.7083740</ele>
        <time>2008-06-01T09:15:46Z</time>
      </trkpt>
      <trkpt lat="45.8876395" lon="8.5097051">
        <ele>448.1118164</ele>
        <time>2008-06-01T09:15:47Z</time>
      </trkpt>
      <trkpt lat="45.8875537" lon="8.5093188">
        <ele>461.0894775</ele>
        <time>2008-06-01T09:15:54Z</time>
      </trkpt>
      <trkpt lat="45.8874249" lon="8.5091472">
        <ele>462.0507813</ele>
        <time>2008-06-01T09:15:57Z</time>
      </trkpt>
      <trkpt lat="45.8874249" lon="8.5090613">
        <ele>464.9348145</ele>
        <time>2008-06-01T09:16:00Z</time>
      </trkpt>
      <trkpt lat="45.8872747" lon="8.5083747">
        <ele>544.2436523</ele>
        <time>2008-06-01T09:16:12Z</time>
      </trkpt>
      <trkpt lat="45.8871675" lon="8.5077310">
        <ele>559.6247559</ele>
        <time>2008-06-01T09:16:24Z</time>
      </trkpt>
      <trkpt lat="45.8870387" lon="8.5070872">
        <ele>572.1218262</ele>
        <time>2008-06-01T09:16:36Z</time>
      </trkpt>
      <trkpt lat="45.8869529" lon="8.5065937">
        <ele>583.1767578</ele>
        <time>2008-06-01T09:16:45Z</time>
      </trkpt>
      <trkpt lat="45.8868241" lon="8.5058856">
        <ele>599.5192871</ele>
        <time>2008-06-01T09:16:58Z</time>
      </trkpt>
      <trkpt lat="45.8867168" lon="8.5052848">
        <ele>609.1325684</ele>
        <time>2008-06-01T09:17:10Z</time>
      </trkpt>
      <trkpt lat="45.8866525" lon="8.5048771">
        <ele>620.6684570</ele>
        <time>2008-06-01T09:17:18Z</time>
      </trkpt>
      <trkpt lat="45.8865666" lon="8.5044909">
        <ele>630.7622070</ele>
        <time>2008-06-01T09:17:26Z</time>
      </trkpt>
      <trkpt lat="45.8865237" lon="8.5041904">
        <ele>636.0495605</ele>
        <time>2008-06-01T09:17:34Z</time>
      </trkpt>
      <trkpt lat="45.8864379" lon="8.5037827">
        <ele>639.8947754</ele>
        <time>2008-06-01T09:17:42Z</time>
      </trkpt>
      <trkpt lat="45.8863950" lon="8.5035038">
        <ele>647.5852051</ele>
        <time>2008-06-01T09:17:48Z</time>
      </trkpt>
      <trkpt lat="45.8863521" lon="8.5032678">
        <ele>653.8339844</ele>
        <time>2008-06-01T09:17:54Z</time>
      </trkpt>
      <trkpt lat="45.8863091" lon="8.5029674">
        <ele>660.0822754</ele>
        <time>2008-06-01T09:18:01Z</time>
      </trkpt>
      <trkpt lat="45.8862233" lon="8.5024738">
        <ele>666.3308105</ele>
        <time>2008-06-01T09:18:08Z</time>
      </trkpt>
      <trkpt lat="45.8861804" lon="8.5021949">
        <ele>676.4248047</ele>
        <time>2008-06-01T09:18:13Z</time>
      </trkpt>
      <trkpt lat="45.8859444" lon="8.5011435">
        <ele>726.4133301</ele>
        <time>2008-06-01T09:18:32Z</time>
      </trkpt>
      <trkpt lat="45.8859229" lon="8.5009718">
        <ele>731.7004395</ele>
        <time>2008-06-01T09:18:36Z</time>
      </trkpt>
      <trkpt lat="45.8858371" lon="8.5005641">
        <ele>736.9877930</ele>
        <time>2008-06-01T09:18:43Z</time>
      </trkpt>
      <trkpt lat="45.8857083" lon="8.5000277">
        <ele>740.3525391</ele>
        <time>2008-06-01T09:18:52Z</time>
      </trkpt>
      <trkpt lat="45.8854723" lon="8.4988904">
        <ele>756.2141113</ele>
        <time>2008-06-01T09:19:11Z</time>
      </trkpt>
      <trkpt lat="45.8852577" lon="8.4979677">
        <ele>764.3854980</ele>
        <time>2008-06-01T09:19:27Z</time>
      </trkpt>
      <trkpt lat="45.8850217" lon="8.4971309">
        <ele>766.3081055</ele>
        <time>2008-06-01T09:19:42Z</time>
      </trkpt>
      <trkpt lat="45.8849788" lon="8.4968734">
        <ele>772.0759277</ele>
        <time>2008-06-01T09:19:49Z</time>
      </trkpt>
      <trkpt lat="45.8849788" lon="8.4967875">
        <ele>777.8437500</ele>
        <time>2008-06-01T09:19:58Z</time>
      </trkpt>
      <trkpt lat="45.8850002" lon="8.4967017">
        <ele>779.7663574</ele>
        <time>2008-06-01T09:20:07Z</time>
      </trkpt>
      <trkpt lat="45.8850002" lon="8.4966588">
        <ele>785.0539551</ele>
        <time>2008-06-01T09:20:23Z</time>
      </trkpt>
      <trkpt lat="45.8850217" lon="8.4966373">
        <ele>792.7443848</ele>
        <time>2008-06-01T09:20:48Z</time>
      </trkpt>
      <trkpt lat="45.8849788" lon="8.4965301">
        <ele>792.7443848</ele>
        <time>2008-06-01T09:21:21Z</time>
      </trkpt>
      <trkpt lat="45.8849573" lon="8.4964657">
        <ele>792.7443848</ele>
        <time>2008-06-01T09:22:19Z</time>
      </trkpt>
      <trkpt lat="45.8849788" lon="8.4963369">
        <ele>801.3962402</ele>
        <time>2008-06-01T09:23:10Z</time>
      </trkpt>
      <trkpt lat="45.8849573" lon="8.4959292">
        <ele>810.0478516</ele>
        <time>2008-06-01T09:23:14Z</time>
      </trkpt>
      <trkpt lat="45.8849359" lon="8.4954786">
        <ele>824.4677734</ele>
        <time>2008-06-01T09:23:24Z</time>
      </trkpt>
      <trkpt lat="45.8848929" lon="8.4949207">
        <ele>830.7165527</ele>
        <time>2008-06-01T09:23:32Z</time>
      </trkpt>
      <trkpt lat="45.8848715" lon="8.4945560">
        <ele>837.9262695</ele>
        <time>2008-06-01T09:23:36Z</time>
      </trkpt>
      <trkpt lat="45.8848286" lon="8.4936762">
        <ele>857.6333008</ele>
        <time>2008-06-01T09:23:46Z</time>
      </trkpt>
      <trkpt lat="45.8847857" lon="8.4930754">
        <ele>867.2465820</ele>
        <time>2008-06-01T09:23:52Z</time>
      </trkpt>
      <trkpt lat="45.8847427" lon="8.4927106">
        <ele>869.1691895</ele>
        <time>2008-06-01T09:23:55Z</time>
      </trkpt>
      <trkpt lat="45.8846998" lon="8.4920239">
        <ele>874.9370117</ele>
        <time>2008-06-01T09:24:02Z</time>
      </trkpt>
      <trkpt lat="45.8846784" lon="8.4914017">
        <ele>879.2629395</ele>
        <time>2008-06-01T09:24:08Z</time>
      </trkpt>
      <trkpt lat="45.8846354" lon="8.4906507">
        <ele>887.9147949</ele>
        <time>2008-06-01T09:24:16Z</time>
      </trkpt>
      <trkpt lat="45.8846354" lon="8.4903932">
        <ele>891.2792969</ele>
        <time>2008-06-01T09:24:19Z</time>
      </trkpt>
      <trkpt lat="45.8846998" lon="8.4900928">
        <ele>890.3181152</ele>
        <time>2008-06-01T09:24:23Z</time>
      </trkpt>
      <trkpt lat="45.8846354" lon="8.4897709">
        <ele>893.6828613</ele>
        <time>2008-06-01T09:24:26Z</time>
      </trkpt>
      <trkpt lat="45.8846354" lon="8.4894276">
        <ele>959.5332031</ele>
        <time>2008-06-01T09:24:31Z</time>
      </trkpt>
      <trkpt lat="45.8846354" lon="8.4888268">
        <ele>965.7817383</ele>
        <time>2008-06-01T09:24:39Z</time>
      </trkpt>
      <trkpt lat="45.8846140" lon="8.4882689">
        <ele>970.1074219</ele>
        <time>2008-06-01T09:24:46Z</time>
      </trkpt>
      <trkpt lat="45.8845711" lon="8.4874320">
        <ele>967.2236328</ele>
        <time>2008-06-01T09:24:56Z</time>
      </trkpt>
      <trkpt lat="45.8845282" lon="8.4862518">
        <ele>965.3010254</ele>
        <time>2008-06-01T09:25:10Z</time>
      </trkpt>
      <trkpt lat="45.8844638" lon="8.4849644">
        <ele>967.2236328</ele>
        <time>2008-06-01T09:25:25Z</time>
      </trkpt>
      <trkpt lat="45.8843994" lon="8.4835482">
        <ele>969.6269531</ele>
        <time>2008-06-01T09:25:41Z</time>
      </trkpt>
      <trkpt lat="45.8843350" lon="8.4823036">
        <ele>975.8754883</ele>
        <time>2008-06-01T09:25:55Z</time>
      </trkpt>
      <trkpt lat="45.8842707" lon="8.4806085">
        <ele>987.8918457</ele>
        <time>2008-06-01T09:26:14Z</time>
      </trkpt>
      <trkpt lat="45.8842063" lon="8.4791708">
        <ele>1001.3503418</ele>
        <time>2008-06-01T09:26:30Z</time>
      </trkpt>
      <trkpt lat="45.8841205" lon="8.4776688">
        <ele>1016.2507324</ele>
        <time>2008-06-01T09:26:47Z</time>
      </trkpt>
      <trkpt lat="45.8840561" lon="8.4760594">
        <ele>1034.9965820</ele>
        <time>2008-06-01T09:27:05Z</time>
      </trkpt>
      <trkpt lat="45.8839917" lon="8.4746647">
        <ele>1055.6650391</ele>
        <time>2008-06-01T09:27:21Z</time>
      </trkpt>
      <trkpt lat="45.8839059" lon="8.4730768">
        <ele>1083.0622559</ele>
        <time>2008-06-01T09:27:39Z</time>
      </trkpt>
      <trkpt lat="45.8838415" lon="8.4716177">
        <ele>1109.4987793</ele>
        <time>2008-06-01T09:27:56Z</time>
      </trkpt>
      <trkpt lat="45.8837986" lon="8.4710813">
        <ele>1119.5927734</ele>
        <time>2008-06-01T09:28:02Z</time>
      </trkpt>
      <trkpt lat="45.8837557" lon="8.4697294">
        <ele>1148.9128418</ele>
        <time>2008-06-01T09:28:18Z</time>
      </trkpt>
      <trkpt lat="45.8837128" lon="8.4692144">
        <ele>1158.5258789</ele>
        <time>2008-06-01T09:28:24Z</time>
      </trkpt>
      <trkpt lat="45.8837342" lon="8.4690642">
        <ele>1159.0065918</ele>
        <time>2008-06-01T09:28:26Z</time>
      </trkpt>
      <trkpt lat="45.8836913" lon="8.4688067">
        <ele>1159.9677734</ele>
        <time>2008-06-01T09:28:28Z</time>
      </trkpt>
      <trkpt lat="45.8836699" lon="8.4685493">
        <ele>1160.9291992</ele>
        <time>2008-06-01T09:28:31Z</time>
      </trkpt>
      <trkpt lat="45.8836484" lon="8.4676480">
        <ele>1179.6748047</ele>
        <time>2008-06-01T09:28:42Z</time>
      </trkpt>
      <trkpt lat="45.8836055" lon="8.4672403">
        <ele>1183.5202637</ele>
        <time>2008-06-01T09:28:46Z</time>
      </trkpt>
      <trkpt lat="45.8836055" lon="8.4671545">
        <ele>1184.4816895</ele>
        <time>2008-06-01T09:28:47Z</time>
      </trkpt>
      <trkpt lat="45.8836484" lon="8.4668756">
        <ele>1186.8847656</ele>
        <time>2008-06-01T09:28:51Z</time>
      </trkpt>
      <trkpt lat="45.8835840" lon="8.4661245">
        <ele>1203.2272949</ele>
        <time>2008-06-01T09:28:59Z</time>
      </trkpt>
      <trkpt lat="45.8836269" lon="8.4657598">
        <ele>1208.9951172</ele>
        <time>2008-06-01T09:29:03Z</time>
      </trkpt>
      <trkpt lat="45.8836269" lon="8.4652662">
        <ele>1215.2438965</ele>
        <time>2008-06-01T09:29:08Z</time>
      </trkpt>
      <trkpt lat="45.8836055" lon="8.4647083">
        <ele>1221.9729004</ele>
        <time>2008-06-01T09:29:14Z</time>
      </trkpt>
      <trkpt lat="45.8835626" lon="8.4640217">
        <ele>1230.6250000</ele>
        <time>2008-06-01T09:29:22Z</time>
      </trkpt>
      <trkpt lat="45.8834982" lon="8.4633565">
        <ele>1237.8347168</ele>
        <time>2008-06-01T09:29:30Z</time>
      </trkpt>
      <trkpt lat="45.8835196" lon="8.4627128">
        <ele>1311.3757324</ele>
        <time>2008-06-01T09:29:38Z</time>
      </trkpt>
      <trkpt lat="45.8834767" lon="8.4622836">
        <ele>1331.0827637</ele>
        <time>2008-06-01T09:29:44Z</time>
      </trkpt>
      <trkpt lat="45.8833909" lon="8.4611249">
        <ele>1338.2924805</ele>
        <time>2008-06-01T09:29:57Z</time>
      </trkpt>
      <trkpt lat="45.8833480" lon="8.4603953">
        <ele>1351.2702637</ele>
        <time>2008-06-01T09:30:06Z</time>
      </trkpt>
      <trkpt lat="45.8832836" lon="8.4592581">
        <ele>1370.9772949</ele>
        <time>2008-06-01T09:30:19Z</time>
      </trkpt>
      <trkpt lat="45.8832836" lon="8.4588933">
        <ele>1375.3032227</ele>
        <time>2008-06-01T09:30:25Z</time>
      </trkpt>
      <trkpt lat="45.8832622" lon="8.4587216">
        <ele>1379.6291504</ele>
        <time>2008-06-01T09:30:32Z</time>
      </trkpt>
      <trkpt lat="45.8832836" lon="8.4586143">
        <ele>1380.5905762</ele>
        <time>2008-06-01T09:30:43Z</time>
      </trkpt>
      <trkpt lat="45.8832836" lon="8.4586143">
        <ele>1382.9936523</ele>
        <time>2008-06-01T09:30:53Z</time>
      </trkpt>
      <trkpt lat="45.8830261" lon="8.4582496">
        <ele>1379.6291504</ele>
        <time>2008-06-01T09:32:54Z</time>
      </trkpt>
      <trkpt lat="45.8828759" lon="8.4579921">
        <ele>1377.7065430</ele>
        <time>2008-06-01T09:33:03Z</time>
      </trkpt>
      <trkpt lat="45.8827257" lon="8.4577775">
        <ele>1378.1872559</ele>
        <time>2008-06-01T09:33:11Z</time>
      </trkpt>
      <trkpt lat="45.8825541" lon="8.4575844">
        <ele>1379.1484375</ele>
        <time>2008-06-01T09:33:21Z</time>
      </trkpt>
      <trkpt lat="45.8823609" lon="8.4573483">
        <ele>1380.5905762</ele>
        <time>2008-06-01T09:33:31Z</time>
      </trkpt>
      <trkpt lat="45.8821464" lon="8.4571981">
        <ele>1381.5517578</ele>
        <time>2008-06-01T09:33:41Z</time>
      </trkpt>
      <trkpt lat="45.8821249" lon="8.4571767">
        <ele>1382.0324707</ele>
        <time>2008-06-01T09:33:43Z</time>
      </trkpt>
      <trkpt lat="45.8821249" lon="8.4571767">
        <ele>1382.0324707</ele>
        <time>2008-06-01T09:33:57Z</time>
      </trkpt>
      <trkpt lat="45.8821034" lon="8.4571552">
        <ele>1373.8613281</ele>
        <time>2008-06-01T09:34:26Z</time>
      </trkpt>
      <trkpt lat="45.8820605" lon="8.4571552">
        <ele>1383.9550781</ele>
        <time>2008-06-01T09:47:23Z</time>
      </trkpt>
      <trkpt lat="45.8818889" lon="8.4571981">
        <ele>1382.9936523</ele>
        <time>2008-06-01T09:47:32Z</time>
      </trkpt>
      <trkpt lat="45.8816957" lon="8.4572411">
        <ele>1383.9550781</ele>
        <time>2008-06-01T09:47:42Z</time>
      </trkpt>
      <trkpt lat="45.8814383" lon="8.4571123">
        <ele>1385.3969727</ele>
        <time>2008-06-01T09:47:54Z</time>
      </trkpt>
      <trkpt lat="45.8812666" lon="8.4568977">
        <ele>1384.9165039</ele>
        <time>2008-06-01T09:48:06Z</time>
      </trkpt>
      <trkpt lat="45.8811378" lon="8.4566402">
        <ele>1384.9165039</ele>
        <time>2008-06-01T09:48:15Z</time>
      </trkpt>
      <trkpt lat="45.8809662" lon="8.4563613">
        <ele>1387.8002930</ele>
        <time>2008-06-01T09:48:28Z</time>
      </trkpt>
      <trkpt lat="45.8807302" lon="8.4562540">
        <ele>1392.6071777</ele>
        <time>2008-06-01T09:48:40Z</time>
      </trkpt>
      <trkpt lat="45.8805799" lon="8.4560823">
        <ele>1396.9328613</ele>
        <time>2008-06-01T09:48:49Z</time>
      </trkpt>
      <trkpt lat="45.8804297" lon="8.4558892">
        <ele>1400.2976074</ele>
        <time>2008-06-01T09:48:59Z</time>
      </trkpt>
      <trkpt lat="45.8802152" lon="8.4557819">
        <ele>1403.6621094</ele>
        <time>2008-06-01T09:49:10Z</time>
      </trkpt>
      <trkpt lat="45.8799791" lon="8.4556103">
        <ele>1403.1813965</ele>
        <time>2008-06-01T09:49:24Z</time>
      </trkpt>
      <trkpt lat="45.8797860" lon="8.4555888">
        <ele>1404.6235352</ele>
        <time>2008-06-01T09:49:32Z</time>
      </trkpt>
      <trkpt lat="45.8794212" lon="8.4556961">
        <ele>1402.7006836</ele>
        <time>2008-06-01T09:49:47Z</time>
      </trkpt>
      <trkpt lat="45.8791637" lon="8.4557819">
        <ele>1404.1430664</ele>
        <time>2008-06-01T09:49:57Z</time>
      </trkpt>
      <trkpt lat="45.8789706" lon="8.4557605">
        <ele>1405.5849609</ele>
        <time>2008-06-01T09:50:06Z</time>
      </trkpt>
      <trkpt lat="45.8787560" lon="8.4557390">
        <ele>1407.0268555</ele>
        <time>2008-06-01T09:50:16Z</time>
      </trkpt>
      <trkpt lat="45.8787131" lon="8.4556961">
        <ele>1407.5075684</ele>
        <time>2008-06-01T09:50:19Z</time>
      </trkpt>
      <trkpt lat="45.8786917" lon="8.4556961">
        <ele>1407.9882813</ele>
        <time>2008-06-01T09:50:25Z</time>
      </trkpt>
      <trkpt lat="45.8786702" lon="8.4557605">
        <ele>1420.9660645</ele>
        <time>2008-06-01T09:51:08Z</time>
      </trkpt>
      <trkpt lat="45.8786058" lon="8.4558678">
        <ele>1418.5625000</ele>
        <time>2008-06-01T09:51:14Z</time>
      </trkpt>
      <trkpt lat="45.8784556" lon="8.4560394">
        <ele>1417.6010742</ele>
        <time>2008-06-01T09:51:22Z</time>
      </trkpt>
      <trkpt lat="45.8783054" lon="8.4561038">
        <ele>1415.1979980</ele>
        <time>2008-06-01T09:51:31Z</time>
      </trkpt>
      <trkpt lat="45.8781338" lon="8.4560609">
        <ele>1413.7558594</ele>
        <time>2008-06-01T09:51:38Z</time>
      </trkpt>
      <trkpt lat="45.8777905" lon="8.4559536">
        <ele>1410.8720703</ele>
        <time>2008-06-01T09:51:48Z</time>
      </trkpt>
      <trkpt lat="45.8774686" lon="8.4558892">
        <ele>1407.9882813</ele>
        <time>2008-06-01T09:51:55Z</time>
      </trkpt>
      <trkpt lat="45.8768678" lon="8.4557605">
        <ele>1403.6621094</ele>
        <time>2008-06-01T09:52:05Z</time>
      </trkpt>
      <trkpt lat="45.8762240" lon="8.4556532">
        <ele>1400.7780762</ele>
        <time>2008-06-01T09:52:14Z</time>
      </trkpt>
      <trkpt lat="45.8761382" lon="8.4556532">
        <ele>1400.2976074</ele>
        <time>2008-06-01T09:52:15Z</time>
      </trkpt>
      <trkpt lat="45.8758807" lon="8.4559107">
        <ele>1397.4135742</ele>
        <time>2008-06-01T09:52:19Z</time>
      </trkpt>
      <trkpt lat="45.8758378" lon="8.4562969">
        <ele>1395.4909668</ele>
        <time>2008-06-01T09:52:22Z</time>
      </trkpt>
      <trkpt lat="45.8758807" lon="8.4568119">
        <ele>1393.5683594</ele>
        <time>2008-06-01T09:52:27Z</time>
      </trkpt>
      <trkpt lat="45.8759236" lon="8.4570050">
        <ele>1391.6457520</ele>
        <time>2008-06-01T09:52:29Z</time>
      </trkpt>
      <trkpt lat="45.8762026" lon="8.4573054">
        <ele>1387.8002930</ele>
        <time>2008-06-01T09:52:34Z</time>
      </trkpt>
      <trkpt lat="45.8763099" lon="8.4573269">
        <ele>1384.9165039</ele>
        <time>2008-06-01T09:52:48Z</time>
      </trkpt>
      <trkpt lat="45.8763313" lon="8.4573913">
        <ele>1382.9936523</ele>
        <time>2008-06-01T09:52:57Z</time>
      </trkpt>
      <trkpt lat="45.8763313" lon="8.4574127">
        <ele>1382.0324707</ele>
        <time>2008-06-01T09:53:02Z</time>
      </trkpt>
      <trkpt lat="45.8762670" lon="8.4574342">
        <ele>1381.0712891</ele>
        <time>2008-06-01T09:53:05Z</time>
      </trkpt>
      <trkpt lat="45.8762455" lon="8.4574556">
        <ele>1378.1872559</ele>
        <time>2008-06-01T09:53:11Z</time>
      </trkpt>
      <trkpt lat="45.8762240" lon="8.4574342">
        <ele>1379.6291504</ele>
        <time>2008-06-01T09:53:36Z</time>
      </trkpt>
      <trkpt lat="45.8760953" lon="8.4575415">
        <ele>1376.7453613</ele>
        <time>2008-06-01T09:53:42Z</time>
      </trkpt>
      <trkpt lat="45.8759880" lon="8.4576273">
        <ele>1375.7839355</ele>
        <time>2008-06-01T09:53:45Z</time>
      </trkpt>
      <trkpt lat="45.8755803" lon="8.4580779">
        <ele>1371.9384766</ele>
        <time>2008-06-01T09:53:54Z</time>
      </trkpt>
      <trkpt lat="45.8752584" lon="8.4582496">
        <ele>1367.6125488</ele>
        <time>2008-06-01T09:54:01Z</time>
      </trkpt>
      <trkpt lat="45.8749151" lon="8.4582925">
        <ele>1360.8835449</ele>
        <time>2008-06-01T09:54:07Z</time>
      </trkpt>
      <trkpt lat="45.8748078" lon="8.4583139">
        <ele>1359.4416504</ele>
        <time>2008-06-01T09:54:09Z</time>
      </trkpt>
      <trkpt lat="45.8746576" lon="8.4583569">
        <ele>1356.0769043</ele>
        <time>2008-06-01T09:54:12Z</time>
      </trkpt>
      <trkpt lat="45.8744216" lon="8.4583354">
        <ele>1352.7121582</ele>
        <time>2008-06-01T09:54:16Z</time>
      </trkpt>
      <trkpt lat="45.8742499" lon="8.4583569">
        <ele>1350.3090820</ele>
        <time>2008-06-01T09:54:19Z</time>
      </trkpt>
      <trkpt lat="45.8741641" lon="8.4583998">
        <ele>1349.3476563</ele>
        <time>2008-06-01T09:54:23Z</time>
      </trkpt>
      <trkpt lat="45.8741212" lon="8.4583998">
        <ele>1347.9057617</ele>
        <time>2008-06-01T09:54:30Z</time>
      </trkpt>
      <trkpt lat="45.8740354" lon="8.4584212">
        <ele>1345.5024414</ele>
        <time>2008-06-01T09:54:35Z</time>
      </trkpt>
      <trkpt lat="45.8737779" lon="8.4584856">
        <ele>1339.2536621</ele>
        <time>2008-06-01T09:54:43Z</time>
      </trkpt>
      <trkpt lat="45.8735633" lon="8.4586358">
        <ele>1332.0439453</ele>
        <time>2008-06-01T09:54:51Z</time>
      </trkpt>
      <trkpt lat="45.8734345" lon="8.4588075">
        <ele>1322.9113770</ele>
        <time>2008-06-01T09:54:58Z</time>
      </trkpt>
      <trkpt lat="45.8734345" lon="8.4588289">
        <ele>1321.4692383</ele>
        <time>2008-06-01T09:54:59Z</time>
      </trkpt>
      <trkpt lat="45.8734131" lon="8.4589577">
        <ele>1318.5854492</ele>
        <time>2008-06-01T09:55:04Z</time>
      </trkpt>
      <trkpt lat="45.8734560" lon="8.4590220">
        <ele>1318.1047363</ele>
        <time>2008-06-01T09:55:10Z</time>
      </trkpt>
      <trkpt lat="45.8734345" lon="8.4590650">
        <ele>1318.5854492</ele>
        <time>2008-06-01T09:56:00Z</time>
      </trkpt>
      <trkpt lat="45.8733916" lon="8.4591293">
        <ele>1317.6240234</ele>
        <time>2008-06-01T09:56:14Z</time>
      </trkpt>
      <trkpt lat="45.8733916" lon="8.4591293">
        <ele>1317.6240234</ele>
        <time>2008-06-01T09:56:25Z</time>
      </trkpt>
      <trkpt lat="45.8733487" lon="8.4591937">
        <ele>1312.8176270</ele>
        <time>2008-06-01T09:56:37Z</time>
      </trkpt>
      <trkpt lat="45.8732414" lon="8.4593868">
        <ele>1308.0112305</ele>
        <time>2008-06-01T09:56:50Z</time>
      </trkpt>
      <trkpt lat="45.8731985" lon="8.4596443">
        <ele>1303.2043457</ele>
        <time>2008-06-01T09:57:03Z</time>
      </trkpt>
      <trkpt lat="45.8731556" lon="8.4598374">
        <ele>1294.5524902</ele>
        <time>2008-06-01T09:57:14Z</time>
      </trkpt>
      <trkpt lat="45.8731985" lon="8.4599447">
        <ele>1288.3039551</ele>
        <time>2008-06-01T09:57:26Z</time>
      </trkpt>
      <trkpt lat="45.8731127" lon="8.4600091">
        <ele>1294.0720215</ele>
        <time>2008-06-01T09:59:05Z</time>
      </trkpt>
      <trkpt lat="45.8730912" lon="8.4600949">
        <ele>1294.0720215</ele>
        <time>2008-06-01T09:59:17Z</time>
      </trkpt>
      <trkpt lat="45.8730483" lon="8.4601164">
        <ele>1294.5524902</ele>
        <time>2008-06-01T09:59:21Z</time>
      </trkpt>
      <trkpt lat="45.8728123" lon="8.4601164">
        <ele>1292.6301270</ele>
        <time>2008-06-01T09:59:28Z</time>
      </trkpt>
      <trkpt lat="45.8727694" lon="8.4601164">
        <ele>1292.6301270</ele>
        <time>2008-06-01T09:59:29Z</time>
      </trkpt>
      <trkpt lat="45.8724689" lon="8.4603310">
        <ele>1290.7070313</ele>
        <time>2008-06-01T09:59:38Z</time>
      </trkpt>
      <trkpt lat="45.8722115" lon="8.4606314">
        <ele>1284.4587402</ele>
        <time>2008-06-01T09:59:51Z</time>
      </trkpt>
      <trkpt lat="45.8719540" lon="8.4610820">
        <ele>1283.0166016</ele>
        <time>2008-06-01T10:00:07Z</time>
      </trkpt>
      <trkpt lat="45.8718252" lon="8.4614253">
        <ele>1277.7294922</ele>
        <time>2008-06-01T10:00:19Z</time>
      </trkpt>
      <trkpt lat="45.8718038" lon="8.4614468">
        <ele>1277.2490234</ele>
        <time>2008-06-01T10:00:20Z</time>
      </trkpt>
      <trkpt lat="45.8716106" lon="8.4617472">
        <ele>1274.8454590</ele>
        <time>2008-06-01T10:00:25Z</time>
      </trkpt>
      <trkpt lat="45.8715034" lon="8.4618974">
        <ele>1274.3647461</ele>
        <time>2008-06-01T10:00:31Z</time>
      </trkpt>
      <trkpt lat="45.8713317" lon="8.4619832">
        <ele>1262.3483887</ele>
        <time>2008-06-01T10:00:43Z</time>
      </trkpt>
      <trkpt lat="45.8712244" lon="8.4621549">
        <ele>1253.6965332</ele>
        <time>2008-06-01T10:00:55Z</time>
      </trkpt>
      <trkpt lat="45.8713531" lon="8.4621334">
        <ele>1190.7299805</ele>
        <time>2008-06-01T10:01:45Z</time>
      </trkpt>
      <trkpt lat="45.8712244" lon="8.4622407">
        <ele>1192.1721191</ele>
        <time>2008-06-01T10:01:56Z</time>
      </trkpt>
      <trkpt lat="45.8709455" lon="8.4624124">
        <ele>1190.2495117</ele>
        <time>2008-06-01T10:02:07Z</time>
      </trkpt>
      <trkpt lat="45.8707309" lon="8.4626484">
        <ele>1188.8076172</ele>
        <time>2008-06-01T10:02:17Z</time>
      </trkpt>
      <trkpt lat="45.8705592" lon="8.4628201">
        <ele>1184.9624023</ele>
        <time>2008-06-01T10:02:28Z</time>
      </trkpt>
      <trkpt lat="45.8705378" lon="8.4628201">
        <ele>1185.9235840</ele>
        <time>2008-06-01T10:02:35Z</time>
      </trkpt>
      <trkpt lat="45.8704948" lon="8.4629703">
        <ele>1185.4428711</ele>
        <time>2008-06-01T10:02:47Z</time>
      </trkpt>
      <trkpt lat="45.8704734" lon="8.4630346">
        <ele>1182.5590820</ele>
        <time>2008-06-01T10:02:54Z</time>
      </trkpt>
      <trkpt lat="45.8704305" lon="8.4632063">
        <ele>1179.6748047</ele>
        <time>2008-06-01T10:03:10Z</time>
      </trkpt>
      <trkpt lat="45.8704519" lon="8.4633136">
        <ele>1178.2329102</ele>
        <time>2008-06-01T10:03:20Z</time>
      </trkpt>
      <trkpt lat="45.8705163" lon="8.4635282">
        <ele>1173.9069824</ele>
        <time>2008-06-01T10:03:43Z</time>
      </trkpt>
      <trkpt lat="45.8705378" lon="8.4636140">
        <ele>1171.5036621</ele>
        <time>2008-06-01T10:03:58Z</time>
      </trkpt>
      <trkpt lat="45.8704519" lon="8.4635925">
        <ele>1163.3325195</ele>
        <time>2008-06-01T10:04:09Z</time>
      </trkpt>
      <trkpt lat="45.8703446" lon="8.4635496">
        <ele>1158.0454102</ele>
        <time>2008-06-01T10:04:23Z</time>
      </trkpt>
      <trkpt lat="45.8702159" lon="8.4635067">
        <ele>1151.3161621</ele>
        <time>2008-06-01T10:04:35Z</time>
      </trkpt>
      <trkpt lat="45.8702159" lon="8.4635282">
        <ele>1149.8742676</ele>
        <time>2008-06-01T10:04:38Z</time>
      </trkpt>
      <trkpt lat="45.8702159" lon="8.4636354">
        <ele>1143.6254883</ele>
        <time>2008-06-01T10:04:45Z</time>
      </trkpt>
      <trkpt lat="45.8702803" lon="8.4638500">
        <ele>1140.2609863</ele>
        <time>2008-06-01T10:04:54Z</time>
      </trkpt>
      <trkpt lat="45.8703232" lon="8.4639144">
        <ele>1139.7802734</ele>
        <time>2008-06-01T10:04:56Z</time>
      </trkpt>
      <trkpt lat="45.8706450" lon="8.4640431">
        <ele>1138.3383789</ele>
        <time>2008-06-01T10:05:03Z</time>
      </trkpt>
      <trkpt lat="45.8706665" lon="8.4640646">
        <ele>1134.4931641</ele>
        <time>2008-06-01T10:16:21Z</time>
      </trkpt>
      <trkpt lat="45.8705163" lon="8.4640646">
        <ele>1132.0898438</ele>
        <time>2008-06-01T10:16:25Z</time>
      </trkpt>
      <trkpt lat="45.8704734" lon="8.4640646">
        <ele>1131.6088867</ele>
        <time>2008-06-01T10:16:26Z</time>
      </trkpt>
      <trkpt lat="45.8703232" lon="8.4640431">
        <ele>1131.1284180</ele>
        <time>2008-06-01T10:16:30Z</time>
      </trkpt>
      <trkpt lat="45.8701730" lon="8.4641290">
        <ele>1129.2055664</ele>
        <time>2008-06-01T10:16:38Z</time>
      </trkpt>
      <trkpt lat="45.8701086" lon="8.4642792">
        <ele>1124.3991699</ele>
        <time>2008-06-01T10:16:47Z</time>
      </trkpt>
      <trkpt lat="45.8701086" lon="8.4643006">
        <ele>1124.8798828</ele>
        <time>2008-06-01T10:16:56Z</time>
      </trkpt>
      <trkpt lat="45.8701086" lon="8.4643221">
        <ele>1124.3991699</ele>
        <time>2008-06-01T10:17:16Z</time>
      </trkpt>
      <trkpt lat="45.8701086" lon="8.4644079">
        <ele>1123.4379883</ele>
        <time>2008-06-01T10:18:24Z</time>
      </trkpt>
      <trkpt lat="45.8700657" lon="8.4644294">
        <ele>1119.5927734</ele>
        <time>2008-06-01T10:19:06Z</time>
      </trkpt>
      <trkpt lat="45.8700442" lon="8.4644508">
        <ele>1119.5927734</ele>
        <time>2008-06-01T10:19:07Z</time>
      </trkpt>
      <trkpt lat="45.8699155" lon="8.4645367">
        <ele>1119.5927734</ele>
        <time>2008-06-01T10:19:12Z</time>
      </trkpt>
      <trkpt lat="45.8697653" lon="8.4643650">
        <ele>1118.6313477</ele>
        <time>2008-06-01T10:19:18Z</time>
      </trkpt>
      <trkpt lat="45.8697438" lon="8.4641075">
        <ele>1119.1120605</ele>
        <time>2008-06-01T10:19:22Z</time>
      </trkpt>
      <trkpt lat="45.8696795" lon="8.4638715">
        <ele>1119.1120605</ele>
        <time>2008-06-01T10:19:25Z</time>
      </trkpt>
      <trkpt lat="45.8695292" lon="8.4635711">
        <ele>1119.1120605</ele>
        <time>2008-06-01T10:19:30Z</time>
      </trkpt>
      <trkpt lat="45.8692718" lon="8.4635496">
        <ele>1118.1506348</ele>
        <time>2008-06-01T10:19:35Z</time>
      </trkpt>
      <trkpt lat="45.8691859" lon="8.4635282">
        <ele>1117.1894531</ele>
        <time>2008-06-01T10:19:37Z</time>
      </trkpt>
      <trkpt lat="45.8690357" lon="8.4633565">
        <ele>1117.1894531</ele>
        <time>2008-06-01T10:19:41Z</time>
      </trkpt>
      <trkpt lat="45.8688426" lon="8.4628415">
        <ele>1116.7087402</ele>
        <time>2008-06-01T10:19:47Z</time>
      </trkpt>
      <trkpt lat="45.8688641" lon="8.4626269">
        <ele>1117.6699219</ele>
        <time>2008-06-01T10:19:50Z</time>
      </trkpt>
      <trkpt lat="45.8689713" lon="8.4623694">
        <ele>1117.1894531</ele>
        <time>2008-06-01T10:19:56Z</time>
      </trkpt>
      <trkpt lat="45.8689070" lon="8.4622836">
        <ele>1116.2280273</ele>
        <time>2008-06-01T10:20:00Z</time>
      </trkpt>
      <trkpt lat="45.8688855" lon="8.4621978">
        <ele>1115.2666016</ele>
        <time>2008-06-01T10:20:03Z</time>
      </trkpt>
      <trkpt lat="45.8688211" lon="8.4621549">
        <ele>1113.8244629</ele>
        <time>2008-06-01T10:20:07Z</time>
      </trkpt>
      <trkpt lat="45.8686066" lon="8.4623265">
        <ele>1111.4213867</ele>
        <time>2008-06-01T10:20:19Z</time>
      </trkpt>
      <trkpt lat="45.8684564" lon="8.4623909">
        <ele>1110.4599609</ele>
        <time>2008-06-01T10:20:28Z</time>
      </trkpt>
      <trkpt lat="45.8683062" lon="8.4625196">
        <ele>1109.0180664</ele>
        <time>2008-06-01T10:20:38Z</time>
      </trkpt>
      <trkpt lat="45.8681130" lon="8.4625411">
        <ele>1107.0954590</ele>
        <time>2008-06-01T10:20:50Z</time>
      </trkpt>
      <trkpt lat="45.8680058" lon="8.4623265">
        <ele>1104.6921387</ele>
        <time>2008-06-01T10:21:01Z</time>
      </trkpt>
      <trkpt lat="45.8678985" lon="8.4620905">
        <ele>1102.2888184</ele>
        <time>2008-06-01T10:21:13Z</time>
      </trkpt>
      <trkpt lat="45.8677483" lon="8.4619832">
        <ele>1103.7309570</ele>
        <time>2008-06-01T10:21:25Z</time>
      </trkpt>
      <trkpt lat="45.8676624" lon="8.4621119">
        <ele>1105.6535645</ele>
        <time>2008-06-01T10:21:33Z</time>
      </trkpt>
      <trkpt lat="45.8675981" lon="8.4624338">
        <ele>1105.6535645</ele>
        <time>2008-06-01T10:21:41Z</time>
      </trkpt>
      <trkpt lat="45.8674049" lon="8.4628415">
        <ele>1104.6921387</ele>
        <time>2008-06-01T10:21:51Z</time>
      </trkpt>
      <trkpt lat="45.8671689" lon="8.4631419">
        <ele>1104.2116699</ele>
        <time>2008-06-01T10:22:01Z</time>
      </trkpt>
      <trkpt lat="45.8671045" lon="8.4632277">
        <ele>1103.7309570</ele>
        <time>2008-06-01T10:22:06Z</time>
      </trkpt>
      <trkpt lat="45.8669543" lon="8.4633780">
        <ele>1103.2502441</ele>
        <time>2008-06-01T10:22:14Z</time>
      </trkpt>
      <trkpt lat="45.8668900" lon="8.4633994">
        <ele>1103.2502441</ele>
        <time>2008-06-01T10:22:18Z</time>
      </trkpt>
      <trkpt lat="45.8667827" lon="8.4635925">
        <ele>1104.2116699</ele>
        <time>2008-06-01T10:22:28Z</time>
      </trkpt>
      <trkpt lat="45.8666110" lon="8.4638286">
        <ele>1103.2502441</ele>
        <time>2008-06-01T10:22:38Z</time>
      </trkpt>
      <trkpt lat="45.8664823" lon="8.4637427">
        <ele>1103.2502441</ele>
        <time>2008-06-01T10:22:45Z</time>
      </trkpt>
      <trkpt lat="45.8662677" lon="8.4635067">
        <ele>1102.7695313</ele>
        <time>2008-06-01T10:22:57Z</time>
      </trkpt>
      <trkpt lat="45.8660531" lon="8.4633350">
        <ele>1103.7309570</ele>
        <time>2008-06-01T10:23:06Z</time>
      </trkpt>
      <trkpt lat="45.8659673" lon="8.4632277">
        <ele>1105.1728516</ele>
        <time>2008-06-01T10:23:11Z</time>
      </trkpt>
      <trkpt lat="45.8658814" lon="8.4633350">
        <ele>1104.6921387</ele>
        <time>2008-06-01T10:23:16Z</time>
      </trkpt>
      <trkpt lat="45.8657312" lon="8.4636784">
        <ele>1104.6921387</ele>
        <time>2008-06-01T10:23:28Z</time>
      </trkpt>
      <trkpt lat="45.8656025" lon="8.4638929">
        <ele>1104.6921387</ele>
        <time>2008-06-01T10:23:35Z</time>
      </trkpt>
      <trkpt lat="45.8653021" lon="8.4640431">
        <ele>1101.8083496</ele>
        <time>2008-06-01T10:23:43Z</time>
      </trkpt>
      <trkpt lat="45.8649588" lon="8.4641075">
        <ele>1100.3664551</ele>
        <time>2008-06-01T10:23:49Z</time>
      </trkpt>
      <trkpt lat="45.8647656" lon="8.4641504">
        <ele>1099.4047852</ele>
        <time>2008-06-01T10:23:52Z</time>
      </trkpt>
      <trkpt lat="45.8646154" lon="8.4644723">
        <ele>1098.4433594</ele>
        <time>2008-06-01T10:23:57Z</time>
      </trkpt>
      <trkpt lat="45.8644009" lon="8.4647298">
        <ele>1097.0014648</ele>
        <time>2008-06-01T10:24:02Z</time>
      </trkpt>
      <trkpt lat="45.8643150" lon="8.4648156">
        <ele>1096.5209961</ele>
        <time>2008-06-01T10:24:04Z</time>
      </trkpt>
      <trkpt lat="45.8641648" lon="8.4650302">
        <ele>1096.5209961</ele>
        <time>2008-06-01T10:24:08Z</time>
      </trkpt>
      <trkpt lat="45.8639503" lon="8.4653950">
        <ele>1095.5595703</ele>
        <time>2008-06-01T10:24:16Z</time>
      </trkpt>
      <trkpt lat="45.8639073" lon="8.4654379">
        <ele>1095.5595703</ele>
        <time>2008-06-01T10:24:17Z</time>
      </trkpt>
      <trkpt lat="45.8636928" lon="8.4654593">
        <ele>1094.1176758</ele>
        <time>2008-06-01T10:24:23Z</time>
      </trkpt>
      <trkpt lat="45.8636498" lon="8.4654379">
        <ele>1093.6369629</ele>
        <time>2008-06-01T10:24:24Z</time>
      </trkpt>
      <trkpt lat="45.8634782" lon="8.4652233">
        <ele>1091.7143555</ele>
        <time>2008-06-01T10:24:29Z</time>
      </trkpt>
      <trkpt lat="45.8633280" lon="8.4651589">
        <ele>1091.2336426</ele>
        <time>2008-06-01T10:24:32Z</time>
      </trkpt>
      <trkpt lat="45.8631563" lon="8.4649229">
        <ele>1090.7529297</ele>
        <time>2008-06-01T10:24:36Z</time>
      </trkpt>
      <trkpt lat="45.8630490" lon="8.4647727">
        <ele>1090.2724609</ele>
        <time>2008-06-01T10:24:39Z</time>
      </trkpt>
      <trkpt lat="45.8630061" lon="8.4647942">
        <ele>1090.2724609</ele>
        <time>2008-06-01T10:24:40Z</time>
      </trkpt>
      <trkpt lat="45.8628559" lon="8.4649658">
        <ele>1092.6757813</ele>
        <time>2008-06-01T10:24:45Z</time>
      </trkpt>
      <trkpt lat="45.8625770" lon="8.4651160">
        <ele>1093.1562500</ele>
        <time>2008-06-01T10:24:56Z</time>
      </trkpt>
      <trkpt lat="45.8624911" lon="8.4652019">
        <ele>1092.6757813</ele>
        <time>2008-06-01T10:25:03Z</time>
      </trkpt>
      <trkpt lat="45.8623409" lon="8.4652877">
        <ele>1092.6757813</ele>
        <time>2008-06-01T10:25:12Z</time>
      </trkpt>
      <trkpt lat="45.8622122" lon="8.4653735">
        <ele>1091.7143555</ele>
        <time>2008-06-01T10:25:21Z</time>
      </trkpt>
      <trkpt lat="45.8621264" lon="8.4654593">
        <ele>1092.1950684</ele>
        <time>2008-06-01T10:25:26Z</time>
      </trkpt>
      <trkpt lat="45.8619761" lon="8.4654808">
        <ele>1091.2336426</ele>
        <time>2008-06-01T10:25:32Z</time>
      </trkpt>
      <trkpt lat="45.8619547" lon="8.4655023">
        <ele>1090.7529297</ele>
        <time>2008-06-01T10:25:33Z</time>
      </trkpt>
      <trkpt lat="45.8616328" lon="8.4655452">
        <ele>1090.2724609</ele>
        <time>2008-06-01T10:25:41Z</time>
      </trkpt>
      <trkpt lat="45.8615255" lon="8.4655237">
        <ele>1090.2724609</ele>
        <time>2008-06-01T10:25:44Z</time>
      </trkpt>
      <trkpt lat="45.8615255" lon="8.4656310">
        <ele>1088.8305664</ele>
        <time>2008-06-01T10:25:50Z</time>
      </trkpt>
      <trkpt lat="45.8617187" lon="8.4657598">
        <ele>1086.9077148</ele>
        <time>2008-06-01T10:25:58Z</time>
      </trkpt>
      <trkpt lat="45.8621049" lon="8.4657812">
        <ele>1086.4272461</ele>
        <time>2008-06-01T10:26:08Z</time>
      </trkpt>
      <trkpt lat="45.8625555" lon="8.4656525">
        <ele>1085.4658203</ele>
        <time>2008-06-01T10:26:18Z</time>
      </trkpt>
      <trkpt lat="45.8628988" lon="8.4655023">
        <ele>1083.5429688</ele>
        <time>2008-06-01T10:26:25Z</time>
      </trkpt>
      <trkpt lat="45.8629632" lon="8.4655023">
        <ele>1082.5817871</ele>
        <time>2008-06-01T10:26:28Z</time>
      </trkpt>
      <trkpt lat="45.8630490" lon="8.4656954">
        <ele>1079.2170410</ele>
        <time>2008-06-01T10:26:36Z</time>
      </trkpt>
      <trkpt lat="45.8631349" lon="8.4658241">
        <ele>1077.7751465</ele>
        <time>2008-06-01T10:26:39Z</time>
      </trkpt>
      <trkpt lat="45.8632207" lon="8.4664679">
        <ele>1074.4106445</ele>
        <time>2008-06-01T10:26:49Z</time>
      </trkpt>
      <trkpt lat="45.8632421" lon="8.4670472">
        <ele>1072.9687500</ele>
        <time>2008-06-01T10:26:58Z</time>
      </trkpt>
      <trkpt lat="45.8632421" lon="8.4670901">
        <ele>1072.0073242</ele>
        <time>2008-06-01T10:26:59Z</time>
      </trkpt>
      <trkpt lat="45.8633065" lon="8.4673691">
        <ele>1070.0847168</ele>
        <time>2008-06-01T10:27:03Z</time>
      </trkpt>
      <trkpt lat="45.8634138" lon="8.4675837">
        <ele>1068.6428223</ele>
        <time>2008-06-01T10:27:06Z</time>
      </trkpt>
      <trkpt lat="45.8636713" lon="8.4678197">
        <ele>1066.7199707</ele>
        <time>2008-06-01T10:27:11Z</time>
      </trkpt>
      <trkpt lat="45.8638000" lon="8.4680986">
        <ele>1064.7973633</ele>
        <time>2008-06-01T10:27:17Z</time>
      </trkpt>
      <trkpt lat="45.8638430" lon="8.4683561">
        <ele>1063.3554688</ele>
        <time>2008-06-01T10:27:23Z</time>
      </trkpt>
      <trkpt lat="45.8637571" lon="8.4685493">
        <ele>1062.8747559</ele>
        <time>2008-06-01T10:27:28Z</time>
      </trkpt>
      <trkpt lat="45.8635855" lon="8.4686351">
        <ele>1061.9135742</ele>
        <time>2008-06-01T10:27:33Z</time>
      </trkpt>
      <trkpt lat="45.8634782" lon="8.4690213">
        <ele>1060.9521484</ele>
        <time>2008-06-01T10:27:42Z</time>
      </trkpt>
      <trkpt lat="45.8634996" lon="8.4691715">
        <ele>1059.5102539</ele>
        <time>2008-06-01T10:27:46Z</time>
      </trkpt>
      <trkpt lat="45.8634138" lon="8.4692574">
        <ele>1057.1069336</ele>
        <time>2008-06-01T10:27:52Z</time>
      </trkpt>
      <trkpt lat="45.8634138" lon="8.4694076">
        <ele>1053.7424316</ele>
        <time>2008-06-01T10:27:56Z</time>
      </trkpt>
      <trkpt lat="45.8634782" lon="8.4696436">
        <ele>1050.8581543</ele>
        <time>2008-06-01T10:28:02Z</time>
      </trkpt>
      <trkpt lat="45.8634782" lon="8.4696436">
        <ele>1050.8581543</ele>
        <time>2008-06-01T10:28:04Z</time>
      </trkpt>
      <trkpt lat="45.8634996" lon="8.4697080">
        <ele>1050.3776855</ele>
        <time>2008-06-01T10:28:08Z</time>
      </trkpt>
      <trkpt lat="45.8634996" lon="8.4697723">
        <ele>1050.3776855</ele>
        <time>2008-06-01T10:28:10Z</time>
      </trkpt>
      <trkpt lat="45.8634353" lon="8.4699869">
        <ele>1048.4548340</ele>
        <time>2008-06-01T10:28:16Z</time>
      </trkpt>
      <trkpt lat="45.8632636" lon="8.4704375">
        <ele>1045.0903320</ele>
        <time>2008-06-01T10:28:23Z</time>
      </trkpt>
      <trkpt lat="45.8630490" lon="8.4709311">
        <ele>1043.1677246</ele>
        <time>2008-06-01T10:28:31Z</time>
      </trkpt>
      <trkpt lat="45.8628130" lon="8.4712529">
        <ele>1043.1677246</ele>
        <time>2008-06-01T10:28:38Z</time>
      </trkpt>
      <trkpt lat="45.8627272" lon="8.4714460">
        <ele>1041.2451172</ele>
        <time>2008-06-01T10:28:42Z</time>
      </trkpt>
      <trkpt lat="45.8627701" lon="8.4718752">
        <ele>1039.8032227</ele>
        <time>2008-06-01T10:28:48Z</time>
      </trkpt>
      <trkpt lat="45.8628988" lon="8.4721756">
        <ele>1038.3613281</ele>
        <time>2008-06-01T10:28:53Z</time>
      </trkpt>
      <trkpt lat="45.8630276" lon="8.4722829">
        <ele>1034.9965820</ele>
        <time>2008-06-01T10:28:56Z</time>
      </trkpt>
      <trkpt lat="45.8630490" lon="8.4724545">
        <ele>1030.1899414</ele>
        <time>2008-06-01T10:29:00Z</time>
      </trkpt>
      <trkpt lat="45.8629847" lon="8.4729266">
        <ele>1021.0576172</ele>
        <time>2008-06-01T10:29:10Z</time>
      </trkpt>
      <trkpt lat="45.8629632" lon="8.4730983">
        <ele>1017.6926270</ele>
        <time>2008-06-01T10:29:13Z</time>
      </trkpt>
      <trkpt lat="45.8629847" lon="8.4733129">
        <ele>1015.2895508</ele>
        <time>2008-06-01T10:29:16Z</time>
      </trkpt>
      <trkpt lat="45.8630919" lon="8.4735489">
        <ele>1013.8474121</ele>
        <time>2008-06-01T10:29:22Z</time>
      </trkpt>
      <trkpt lat="45.8630919" lon="8.4735274">
        <ele>1010.0021973</ele>
        <time>2008-06-01T10:29:28Z</time>
      </trkpt>
      <trkpt lat="45.8630919" lon="8.4735274">
        <ele>992.6987305</ele>
        <time>2008-06-01T10:30:24Z</time>
      </trkpt>
      <trkpt lat="45.8631992" lon="8.4736776">
        <ele>996.0632324</ele>
        <time>2008-06-01T10:30:34Z</time>
      </trkpt>
      <trkpt lat="45.8632421" lon="8.4737420">
        <ele>996.5439453</ele>
        <time>2008-06-01T10:30:37Z</time>
      </trkpt>
      <trkpt lat="45.8634138" lon="8.4738278">
        <ele>998.4663086</ele>
        <time>2008-06-01T10:30:50Z</time>
      </trkpt>
      <trkpt lat="45.8636069" lon="8.4739995">
        <ele>996.5439453</ele>
        <time>2008-06-01T10:31:00Z</time>
      </trkpt>
      <trkpt lat="45.8636498" lon="8.4740639">
        <ele>996.5439453</ele>
        <time>2008-06-01T10:31:02Z</time>
      </trkpt>
      <trkpt lat="45.8636928" lon="8.4742141">
        <ele>996.0632324</ele>
        <time>2008-06-01T10:31:08Z</time>
      </trkpt>
      <trkpt lat="45.8637571" lon="8.4743214">
        <ele>997.9858398</ele>
        <time>2008-06-01T10:31:13Z</time>
      </trkpt>
      <trkpt lat="45.8639932" lon="8.4744716">
        <ele>1000.8696289</ele>
        <time>2008-06-01T10:31:25Z</time>
      </trkpt>
      <trkpt lat="45.8642292" lon="8.4746647">
        <ele>1000.8696289</ele>
        <time>2008-06-01T10:31:34Z</time>
      </trkpt>
      <trkpt lat="45.8644652" lon="8.4748363">
        <ele>1001.8310547</ele>
        <time>2008-06-01T10:31:41Z</time>
      </trkpt>
      <trkpt lat="45.8645511" lon="8.4750938">
        <ele>1004.2346191</ele>
        <time>2008-06-01T10:31:45Z</time>
      </trkpt>
      <trkpt lat="45.8646369" lon="8.4751368">
        <ele>1004.7150879</ele>
        <time>2008-06-01T10:31:53Z</time>
      </trkpt>
      <trkpt lat="45.8647871" lon="8.4752011">
        <ele>1006.1569824</ele>
        <time>2008-06-01T10:32:04Z</time>
      </trkpt>
      <trkpt lat="45.8649588" lon="8.4753299">
        <ele>1005.6765137</ele>
        <time>2008-06-01T10:32:12Z</time>
      </trkpt>
      <trkpt lat="45.8651733" lon="8.4754157">
        <ele>1002.3115234</ele>
        <time>2008-06-01T10:32:20Z</time>
      </trkpt>
      <trkpt lat="45.8654523" lon="8.4756732">
        <ele>1000.8696289</ele>
        <time>2008-06-01T10:32:30Z</time>
      </trkpt>
      <trkpt lat="45.8657742" lon="8.4760594">
        <ele>997.9858398</ele>
        <time>2008-06-01T10:32:42Z</time>
      </trkpt>
      <trkpt lat="45.8660102" lon="8.4765530">
        <ele>997.5051270</ele>
        <time>2008-06-01T10:32:53Z</time>
      </trkpt>
      <trkpt lat="45.8661819" lon="8.4768963">
        <ele>996.5439453</ele>
        <time>2008-06-01T10:33:01Z</time>
      </trkpt>
      <trkpt lat="45.8663964" lon="8.4772611">
        <ele>994.6210938</ele>
        <time>2008-06-01T10:33:11Z</time>
      </trkpt>
      <trkpt lat="45.8663964" lon="8.4774327">
        <ele>994.1406250</ele>
        <time>2008-06-01T10:33:14Z</time>
      </trkpt>
      <trkpt lat="45.8664393" lon="8.4776044">
        <ele>992.2180176</ele>
        <time>2008-06-01T10:33:17Z</time>
      </trkpt>
      <trkpt lat="45.8667397" lon="8.4785271">
        <ele>991.7373047</ele>
        <time>2008-06-01T10:33:27Z</time>
      </trkpt>
      <trkpt lat="45.8666968" lon="8.4786773">
        <ele>991.7373047</ele>
        <time>2008-06-01T10:33:30Z</time>
      </trkpt>
      <trkpt lat="45.8665895" lon="8.4788275">
        <ele>990.7758789</ele>
        <time>2008-06-01T10:33:34Z</time>
      </trkpt>
      <trkpt lat="45.8665252" lon="8.4788704">
        <ele>990.7758789</ele>
        <time>2008-06-01T10:33:35Z</time>
      </trkpt>
      <trkpt lat="45.8661604" lon="8.4791708">
        <ele>989.3339844</ele>
        <time>2008-06-01T10:33:45Z</time>
      </trkpt>
      <trkpt lat="45.8659029" lon="8.4792352">
        <ele>987.4111328</ele>
        <time>2008-06-01T10:33:53Z</time>
      </trkpt>
      <trkpt lat="45.8656240" lon="8.4791708">
        <ele>984.5273438</ele>
        <time>2008-06-01T10:34:02Z</time>
      </trkpt>
      <trkpt lat="45.8655381" lon="8.4791064">
        <ele>982.6047363</ele>
        <time>2008-06-01T10:34:16Z</time>
      </trkpt>
      <trkpt lat="45.8655381" lon="8.4791279">
        <ele>982.6047363</ele>
        <time>2008-06-01T10:34:22Z</time>
      </trkpt>
      <trkpt lat="45.8655381" lon="8.4791708">
        <ele>981.6433105</ele>
        <time>2008-06-01T10:34:25Z</time>
      </trkpt>
      <trkpt lat="45.8655810" lon="8.4793639">
        <ele>979.2399902</ele>
        <time>2008-06-01T10:34:36Z</time>
      </trkpt>
      <trkpt lat="45.8656025" lon="8.4795785">
        <ele>977.7980957</ele>
        <time>2008-06-01T10:34:44Z</time>
      </trkpt>
      <trkpt lat="45.8656454" lon="8.4798145">
        <ele>976.3562012</ele>
        <time>2008-06-01T10:34:51Z</time>
      </trkpt>
      <trkpt lat="45.8656240" lon="8.4800935">
        <ele>976.8369141</ele>
        <time>2008-06-01T10:34:58Z</time>
      </trkpt>
      <trkpt lat="45.8656454" lon="8.4803081">
        <ele>972.9916992</ele>
        <time>2008-06-01T10:35:06Z</time>
      </trkpt>
      <trkpt lat="45.8656883" lon="8.4804153">
        <ele>970.1074219</ele>
        <time>2008-06-01T10:35:14Z</time>
      </trkpt>
      <trkpt lat="45.8657098" lon="8.4804368">
        <ele>968.6655273</ele>
        <time>2008-06-01T10:35:20Z</time>
      </trkpt>
      <trkpt lat="45.8657098" lon="8.4805870">
        <ele>966.7429199</ele>
        <time>2008-06-01T10:35:32Z</time>
      </trkpt>
      <trkpt lat="45.8657098" lon="8.4806943">
        <ele>966.2622070</ele>
        <time>2008-06-01T10:35:41Z</time>
      </trkpt>
      <trkpt lat="45.8657312" lon="8.4807372">
        <ele>964.3395996</ele>
        <time>2008-06-01T10:35:52Z</time>
      </trkpt>
      <trkpt lat="45.8657527" lon="8.4808230">
        <ele>961.9365234</ele>
        <time>2008-06-01T10:36:02Z</time>
      </trkpt>
      <trkpt lat="45.8657527" lon="8.4808660">
        <ele>961.9365234</ele>
        <time>2008-06-01T10:36:04Z</time>
      </trkpt>
      <trkpt lat="45.8656669" lon="8.4811020">
        <ele>959.0524902</ele>
        <time>2008-06-01T10:36:14Z</time>
      </trkpt>
      <trkpt lat="45.8654737" lon="8.4814239">
        <ele>957.6105957</ele>
        <time>2008-06-01T10:36:27Z</time>
      </trkpt>
      <trkpt lat="45.8653665" lon="8.4815311">
        <ele>959.0524902</ele>
        <time>2008-06-01T10:36:38Z</time>
      </trkpt>
      <trkpt lat="45.8653879" lon="8.4815526">
        <ele>959.0524902</ele>
        <time>2008-06-01T10:36:47Z</time>
      </trkpt>
      <trkpt lat="45.8654737" lon="8.4816813">
        <ele>962.8977051</ele>
        <time>2008-06-01T10:36:59Z</time>
      </trkpt>
      <trkpt lat="45.8656669" lon="8.4817886">
        <ele>963.8588867</ele>
        <time>2008-06-01T10:37:08Z</time>
      </trkpt>
      <trkpt lat="45.8658600" lon="8.4819174">
        <ele>963.3784180</ele>
        <time>2008-06-01T10:37:17Z</time>
      </trkpt>
      <trkpt lat="45.8660316" lon="8.4821749">
        <ele>959.5332031</ele>
        <time>2008-06-01T10:37:27Z</time>
      </trkpt>
      <trkpt lat="45.8661175" lon="8.4824753">
        <ele>954.7263184</ele>
        <time>2008-06-01T10:37:34Z</time>
      </trkpt>
      <trkpt lat="45.8661819" lon="8.4829688">
        <ele>953.2844238</ele>
        <time>2008-06-01T10:37:44Z</time>
      </trkpt>
      <trkpt lat="45.8661819" lon="8.4830761">
        <ele>953.2844238</ele>
        <time>2008-06-01T10:37:48Z</time>
      </trkpt>
      <trkpt lat="45.8662248" lon="8.4832907">
        <ele>953.2844238</ele>
        <time>2008-06-01T10:37:53Z</time>
      </trkpt>
      <trkpt lat="45.8662891" lon="8.4836769">
        <ele>953.2844238</ele>
        <time>2008-06-01T10:38:03Z</time>
      </trkpt>
      <trkpt lat="45.8663964" lon="8.4837413">
        <ele>955.6877441</ele>
        <time>2008-06-01T10:38:11Z</time>
      </trkpt>
      <trkpt lat="45.8666110" lon="8.4836125">
        <ele>954.2458496</ele>
        <time>2008-06-01T10:38:21Z</time>
      </trkpt>
      <trkpt lat="45.8666539" lon="8.4836125">
        <ele>954.7263184</ele>
        <time>2008-06-01T10:38:22Z</time>
      </trkpt>
      <trkpt lat="45.8667612" lon="8.4836555">
        <ele>954.2458496</ele>
        <time>2008-06-01T10:38:27Z</time>
      </trkpt>
      <trkpt lat="45.8670187" lon="8.4839129">
        <ele>951.3618164</ele>
        <time>2008-06-01T10:38:36Z</time>
      </trkpt>
      <trkpt lat="45.8672976" lon="8.4841704">
        <ele>948.9584961</ele>
        <time>2008-06-01T10:38:45Z</time>
      </trkpt>
      <trkpt lat="45.8675766" lon="8.4844494">
        <ele>946.5554199</ele>
        <time>2008-06-01T10:38:55Z</time>
      </trkpt>
      <trkpt lat="45.8676195" lon="8.4844923">
        <ele>946.0747070</ele>
        <time>2008-06-01T10:38:56Z</time>
      </trkpt>
      <trkpt lat="45.8677053" lon="8.4849000">
        <ele>942.7102051</ele>
        <time>2008-06-01T10:39:03Z</time>
      </trkpt>
      <trkpt lat="45.8676839" lon="8.4850502">
        <ele>939.8259277</ele>
        <time>2008-06-01T10:39:08Z</time>
      </trkpt>
      <trkpt lat="45.8675122" lon="8.4852862">
        <ele>934.0581055</ele>
        <time>2008-06-01T10:39:20Z</time>
      </trkpt>
      <trkpt lat="45.8675122" lon="8.4853077">
        <ele>933.5773926</ele>
        <time>2008-06-01T10:39:23Z</time>
      </trkpt>
      <trkpt lat="45.8674693" lon="8.4854364">
        <ele>930.6936035</ele>
        <time>2008-06-01T10:39:32Z</time>
      </trkpt>
      <trkpt lat="45.8674693" lon="8.4854794">
        <ele>930.2128906</ele>
        <time>2008-06-01T10:39:35Z</time>
      </trkpt>
      <trkpt lat="45.8675337" lon="8.4856081">
        <ele>928.2902832</ele>
        <time>2008-06-01T10:39:42Z</time>
      </trkpt>
      <trkpt lat="45.8676410" lon="8.4857583">
        <ele>924.9257813</ele>
        <time>2008-06-01T10:39:51Z</time>
      </trkpt>
      <trkpt lat="45.8677483" lon="8.4859729">
        <ele>922.0415039</ele>
        <time>2008-06-01T10:40:00Z</time>
      </trkpt>
      <trkpt lat="45.8677483" lon="8.4860158">
        <ele>921.5607910</ele>
        <time>2008-06-01T10:40:01Z</time>
      </trkpt>
      <trkpt lat="45.8677697" lon="8.4861231">
        <ele>921.5607910</ele>
        <time>2008-06-01T10:40:03Z</time>
      </trkpt>
      <trkpt lat="45.8678126" lon="8.4865308">
        <ele>919.6384277</ele>
        <time>2008-06-01T10:40:10Z</time>
      </trkpt>
      <trkpt lat="45.8677912" lon="8.4869170">
        <ele>917.2351074</ele>
        <time>2008-06-01T10:40:19Z</time>
      </trkpt>
      <trkpt lat="45.8677697" lon="8.4873247">
        <ele>918.6770020</ele>
        <time>2008-06-01T10:40:29Z</time>
      </trkpt>
      <trkpt lat="45.8677483" lon="8.4877110">
        <ele>920.1188965</ele>
        <time>2008-06-01T10:40:41Z</time>
      </trkpt>
      <trkpt lat="45.8677053" lon="8.4880972">
        <ele>916.7543945</ele>
        <time>2008-06-01T10:40:52Z</time>
      </trkpt>
      <trkpt lat="45.8676195" lon="8.4883761">
        <ele>918.6770020</ele>
        <time>2008-06-01T10:41:01Z</time>
      </trkpt>
      <trkpt lat="45.8675337" lon="8.4885907">
        <ele>918.6770020</ele>
        <time>2008-06-01T10:41:08Z</time>
      </trkpt>
      <trkpt lat="45.8674264" lon="8.4888268">
        <ele>918.1962891</ele>
        <time>2008-06-01T10:41:15Z</time>
      </trkpt>
      <trkpt lat="45.8673835" lon="8.4890413">
        <ele>918.6770020</ele>
        <time>2008-06-01T10:41:21Z</time>
      </trkpt>
      <trkpt lat="45.8673406" lon="8.4893847">
        <ele>920.1188965</ele>
        <time>2008-06-01T10:41:29Z</time>
      </trkpt>
      <trkpt lat="45.8672547" lon="8.4898353">
        <ele>919.1577148</ele>
        <time>2008-06-01T10:41:41Z</time>
      </trkpt>
      <trkpt lat="45.8671474" lon="8.4901357">
        <ele>920.5996094</ele>
        <time>2008-06-01T10:41:49Z</time>
      </trkpt>
      <trkpt lat="45.8669972" lon="8.4903288">
        <ele>921.0803223</ele>
        <time>2008-06-01T10:41:57Z</time>
      </trkpt>
      <trkpt lat="45.8667827" lon="8.4903717">
        <ele>919.6384277</ele>
        <time>2008-06-01T10:42:04Z</time>
      </trkpt>
      <trkpt lat="45.8665681" lon="8.4903502">
        <ele>920.1188965</ele>
        <time>2008-06-01T10:42:11Z</time>
      </trkpt>
      <trkpt lat="45.8662677" lon="8.4902644">
        <ele>921.5607910</ele>
        <time>2008-06-01T10:42:21Z</time>
      </trkpt>
      <trkpt lat="45.8661389" lon="8.4900498">
        <ele>921.5607910</ele>
        <time>2008-06-01T10:42:28Z</time>
      </trkpt>
      <trkpt lat="45.8659458" lon="8.4899211">
        <ele>920.5996094</ele>
        <time>2008-06-01T10:42:35Z</time>
      </trkpt>
      <trkpt lat="45.8657527" lon="8.4899211">
        <ele>920.5996094</ele>
        <time>2008-06-01T10:42:41Z</time>
      </trkpt>
      <trkpt lat="45.8655810" lon="8.4899211">
        <ele>922.0415039</ele>
        <time>2008-06-01T10:42:47Z</time>
      </trkpt>
      <trkpt lat="45.8653665" lon="8.4898138">
        <ele>923.9641113</ele>
        <time>2008-06-01T10:42:55Z</time>
      </trkpt>
      <trkpt lat="45.8651733" lon="8.4896207">
        <ele>924.4450684</ele>
        <time>2008-06-01T10:43:03Z</time>
      </trkpt>
      <trkpt lat="45.8649588" lon="8.4894276">
        <ele>925.4062500</ele>
        <time>2008-06-01T10:43:12Z</time>
      </trkpt>
      <trkpt lat="45.8647656" lon="8.4894061">
        <ele>925.4062500</ele>
        <time>2008-06-01T10:43:20Z</time>
      </trkpt>
      <trkpt lat="45.8646154" lon="8.4893417">
        <ele>925.8869629</ele>
        <time>2008-06-01T10:43:28Z</time>
      </trkpt>
      <trkpt lat="45.8645296" lon="8.4893632">
        <ele>926.3676758</ele>
        <time>2008-06-01T10:43:34Z</time>
      </trkpt>
      <trkpt lat="45.8644009" lon="8.4894705">
        <ele>927.8095703</ele>
        <time>2008-06-01T10:43:43Z</time>
      </trkpt>
      <trkpt lat="45.8642936" lon="8.4895349">
        <ele>928.2902832</ele>
        <time>2008-06-01T10:43:52Z</time>
      </trkpt>
      <trkpt lat="45.8641863" lon="8.4896207">
        <ele>926.8483887</ele>
        <time>2008-06-01T10:43:58Z</time>
      </trkpt>
      <trkpt lat="45.8641005" lon="8.4895992">
        <ele>926.8483887</ele>
        <time>2008-06-01T10:44:03Z</time>
      </trkpt>
      <trkpt lat="45.8639717" lon="8.4895349">
        <ele>927.3291016</ele>
        <time>2008-06-01T10:44:11Z</time>
      </trkpt>
      <trkpt lat="45.8638430" lon="8.4893632">
        <ele>926.8483887</ele>
        <time>2008-06-01T10:44:20Z</time>
      </trkpt>
      <trkpt lat="45.8637357" lon="8.4891915">
        <ele>926.3676758</ele>
        <time>2008-06-01T10:44:26Z</time>
      </trkpt>
      <trkpt lat="45.8635426" lon="8.4890628">
        <ele>925.4062500</ele>
        <time>2008-06-01T10:44:32Z</time>
      </trkpt>
      <trkpt lat="45.8633494" lon="8.4889126">
        <ele>924.9257813</ele>
        <time>2008-06-01T10:44:39Z</time>
      </trkpt>
      <trkpt lat="45.8633065" lon="8.4888482">
        <ele>924.9257813</ele>
        <time>2008-06-01T10:44:42Z</time>
      </trkpt>
      <trkpt lat="45.8631778" lon="8.4888697">
        <ele>924.9257813</ele>
        <time>2008-06-01T10:44:48Z</time>
      </trkpt>
      <trkpt lat="45.8630919" lon="8.4890413">
        <ele>923.9641113</ele>
        <time>2008-06-01T10:44:56Z</time>
      </trkpt>
      <trkpt lat="45.8629632" lon="8.4892559">
        <ele>920.1188965</ele>
        <time>2008-06-01T10:45:02Z</time>
      </trkpt>
      <trkpt lat="45.8627486" lon="8.4894490">
        <ele>918.1962891</ele>
        <time>2008-06-01T10:45:10Z</time>
      </trkpt>
      <trkpt lat="45.8626199" lon="8.4896421">
        <ele>912.9091797</ele>
        <time>2008-06-01T10:45:15Z</time>
      </trkpt>
      <trkpt lat="45.8625984" lon="8.4896851">
        <ele>912.4284668</ele>
        <time>2008-06-01T10:45:16Z</time>
      </trkpt>
      <trkpt lat="45.8624911" lon="8.4898567">
        <ele>910.5058594</ele>
        <time>2008-06-01T10:45:20Z</time>
      </trkpt>
      <trkpt lat="45.8624053" lon="8.4899640">
        <ele>909.0639648</ele>
        <time>2008-06-01T10:45:22Z</time>
      </trkpt>
      <trkpt lat="45.8621907" lon="8.4902000">
        <ele>903.2958984</ele>
        <time>2008-06-01T10:45:29Z</time>
      </trkpt>
      <trkpt lat="45.8619761" lon="8.4903717">
        <ele>900.8925781</ele>
        <time>2008-06-01T10:45:34Z</time>
      </trkpt>
      <trkpt lat="45.8617616" lon="8.4905434">
        <ele>899.4506836</ele>
        <time>2008-06-01T10:45:39Z</time>
      </trkpt>
      <trkpt lat="45.8615899" lon="8.4909725">
        <ele>894.6440430</ele>
        <time>2008-06-01T10:45:45Z</time>
      </trkpt>
      <trkpt lat="45.8615255" lon="8.4911442">
        <ele>892.2409668</ele>
        <time>2008-06-01T10:45:47Z</time>
      </trkpt>
      <trkpt lat="45.8614397" lon="8.4915090">
        <ele>886.9533691</ele>
        <time>2008-06-01T10:45:51Z</time>
      </trkpt>
      <trkpt lat="45.8613968" lon="8.4917450">
        <ele>884.5502930</ele>
        <time>2008-06-01T10:45:53Z</time>
      </trkpt>
      <trkpt lat="45.8612895" lon="8.4919596">
        <ele>882.1469727</ele>
        <time>2008-06-01T10:45:57Z</time>
      </trkpt>
      <trkpt lat="45.8612680" lon="8.4920025">
        <ele>878.7824707</ele>
        <time>2008-06-01T10:50:43Z</time>
      </trkpt>
      <trkpt lat="45.8611393" lon="8.4918952">
        <ele>875.4174805</ele>
        <time>2008-06-01T10:50:49Z</time>
      </trkpt>
      <trkpt lat="45.8608603" lon="8.4918952">
        <ele>872.5336914</ele>
        <time>2008-06-01T10:50:56Z</time>
      </trkpt>
      <trkpt lat="45.8604956" lon="8.4919810">
        <ele>870.6110840</ele>
        <time>2008-06-01T10:51:03Z</time>
      </trkpt>
      <trkpt lat="45.8601952" lon="8.4920239">
        <ele>867.7270508</ele>
        <time>2008-06-01T10:51:09Z</time>
      </trkpt>
      <trkpt lat="45.8600235" lon="8.4922171">
        <ele>864.8432617</ele>
        <time>2008-06-01T10:51:14Z</time>
      </trkpt>
      <trkpt lat="45.8599591" lon="8.4923887">
        <ele>861.4787598</ele>
        <time>2008-06-01T10:51:19Z</time>
      </trkpt>
      <trkpt lat="45.8598948" lon="8.4924102">
        <ele>858.5944824</ele>
        <time>2008-06-01T10:51:25Z</time>
      </trkpt>
      <trkpt lat="45.8598304" lon="8.4924531">
        <ele>856.6718750</ele>
        <time>2008-06-01T10:51:32Z</time>
      </trkpt>
      <trkpt lat="45.8598304" lon="8.4924531">
        <ele>864.3625488</ele>
        <time>2008-06-01T10:52:14Z</time>
      </trkpt>
      <trkpt lat="45.8597445" lon="8.4924316">
        <ele>865.8046875</ele>
        <time>2008-06-01T10:52:26Z</time>
      </trkpt>
      <trkpt lat="45.8595300" lon="8.4923458">
        <ele>861.4787598</ele>
        <time>2008-06-01T10:52:32Z</time>
      </trkpt>
      <trkpt lat="45.8594656" lon="8.4923458">
        <ele>860.0366211</ele>
        <time>2008-06-01T10:52:33Z</time>
      </trkpt>
      <trkpt lat="45.8591652" lon="8.4924102">
        <ele>855.7106934</ele>
        <time>2008-06-01T10:52:38Z</time>
      </trkpt>
      <trkpt lat="45.8586287" lon="8.4926033">
        <ele>848.0202637</ele>
        <time>2008-06-01T10:52:46Z</time>
      </trkpt>
      <trkpt lat="45.8581352" lon="8.4925175">
        <ele>833.6003418</ele>
        <time>2008-06-01T10:52:54Z</time>
      </trkpt>
      <trkpt lat="45.8576846" lon="8.4924960">
        <ele>825.4289551</ele>
        <time>2008-06-01T10:53:01Z</time>
      </trkpt>
      <trkpt lat="45.8573842" lon="8.4924531">
        <ele>819.1806641</ele>
        <time>2008-06-01T10:53:06Z</time>
      </trkpt>
      <trkpt lat="45.8573198" lon="8.4924531">
        <ele>816.7773438</ele>
        <time>2008-06-01T10:53:10Z</time>
      </trkpt>
      <trkpt lat="45.8571911" lon="8.4924960">
        <ele>813.4128418</ele>
        <time>2008-06-01T10:53:16Z</time>
      </trkpt>
      <trkpt lat="45.8571482" lon="8.4924960">
        <ele>810.0478516</ele>
        <time>2008-06-01T10:53:21Z</time>
      </trkpt>
      <trkpt lat="45.8571267" lon="8.4925175">
        <ele>792.2636719</ele>
        <time>2008-06-01T10:53:38Z</time>
      </trkpt>
      <trkpt lat="45.8570194" lon="8.4926033">
        <ele>797.0703125</ele>
        <time>2008-06-01T10:53:45Z</time>
      </trkpt>
      <trkpt lat="45.8568263" lon="8.4929037">
        <ele>795.1474609</ele>
        <time>2008-06-01T10:53:52Z</time>
      </trkpt>
      <trkpt lat="45.8565903" lon="8.4933543">
        <ele>792.2636719</ele>
        <time>2008-06-01T10:54:02Z</time>
      </trkpt>
      <trkpt lat="45.8563113" lon="8.4935474">
        <ele>790.3410645</ele>
        <time>2008-06-01T10:54:13Z</time>
      </trkpt>
      <trkpt lat="45.8560753" lon="8.4937406">
        <ele>787.4570313</ele>
        <time>2008-06-01T10:54:23Z</time>
      </trkpt>
      <trkpt lat="45.8558607" lon="8.4939551">
        <ele>788.8991699</ele>
        <time>2008-06-01T10:54:35Z</time>
      </trkpt>
      <trkpt lat="45.8556890" lon="8.4942126">
        <ele>786.0151367</ele>
        <time>2008-06-01T10:54:43Z</time>
      </trkpt>
      <trkpt lat="45.8555174" lon="8.4942770">
        <ele>783.1311035</ele>
        <time>2008-06-01T10:54:47Z</time>
      </trkpt>
      <trkpt lat="45.8554101" lon="8.4942126">
        <ele>782.1699219</ele>
        <time>2008-06-01T10:54:50Z</time>
      </trkpt>
      <trkpt lat="45.8554101" lon="8.4940410">
        <ele>781.6892090</ele>
        <time>2008-06-01T10:54:54Z</time>
      </trkpt>
      <trkpt lat="45.8554530" lon="8.4939766">
        <ele>781.6892090</ele>
        <time>2008-06-01T10:54:56Z</time>
      </trkpt>
      <trkpt lat="45.8554530" lon="8.4939122">
        <ele>781.2087402</ele>
        <time>2008-06-01T10:54:58Z</time>
      </trkpt>
      <trkpt lat="45.8554745" lon="8.4938478">
        <ele>779.7663574</ele>
        <time>2008-06-01T10:55:01Z</time>
      </trkpt>
      <trkpt lat="45.8553672" lon="8.4936118">
        <ele>778.3244629</ele>
        <time>2008-06-01T10:55:09Z</time>
      </trkpt>
      <trkpt lat="45.8550453" lon="8.4932470">
        <ele>777.3632813</ele>
        <time>2008-06-01T10:55:22Z</time>
      </trkpt>
      <trkpt lat="45.8548951" lon="8.4932041">
        <ele>776.8825684</ele>
        <time>2008-06-01T10:55:27Z</time>
      </trkpt>
      <trkpt lat="45.8549380" lon="8.4935260">
        <ele>773.9985352</ele>
        <time>2008-06-01T10:55:32Z</time>
      </trkpt>
      <trkpt lat="45.8549595" lon="8.4936118">
        <ele>773.9985352</ele>
        <time>2008-06-01T10:55:33Z</time>
      </trkpt>
      <trkpt lat="45.8549809" lon="8.4942341">
        <ele>773.9985352</ele>
        <time>2008-06-01T10:55:40Z</time>
      </trkpt>
      <trkpt lat="45.8549595" lon="8.4944057">
        <ele>772.0759277</ele>
        <time>2008-06-01T10:55:42Z</time>
      </trkpt>
      <trkpt lat="45.8549380" lon="8.4945345">
        <ele>771.5952148</ele>
        <time>2008-06-01T10:55:44Z</time>
      </trkpt>
      <trkpt lat="45.8548951" lon="8.4952641">
        <ele>764.8662109</ele>
        <time>2008-06-01T10:55:53Z</time>
      </trkpt>
      <trkpt lat="45.8549595" lon="8.4956503">
        <ele>714.3967285</ele>
        <time>2008-06-01T10:55:57Z</time>
      </trkpt>
      <trkpt lat="45.8550239" lon="8.4958220">
        <ele>714.8774414</ele>
        <time>2008-06-01T10:55:59Z</time>
      </trkpt>
      <trkpt lat="45.8553028" lon="8.4962511">
        <ele>699.0156250</ele>
        <time>2008-06-01T10:56:04Z</time>
      </trkpt>
      <trkpt lat="45.8555603" lon="8.4969592">
        <ele>694.6896973</ele>
        <time>2008-06-01T10:56:10Z</time>
      </trkpt>
      <trkpt lat="45.8554959" lon="8.4971738">
        <ele>694.2092285</ele>
        <time>2008-06-01T10:56:13Z</time>
      </trkpt>
      <trkpt lat="45.8553028" lon="8.4972811">
        <ele>694.6896973</ele>
        <time>2008-06-01T10:56:16Z</time>
      </trkpt>
      <trkpt lat="45.8552814" lon="8.4973669">
        <ele>694.6896973</ele>
        <time>2008-06-01T10:56:17Z</time>
      </trkpt>
      <trkpt lat="45.8551741" lon="8.4975815">
        <ele>694.6896973</ele>
        <time>2008-06-01T10:56:20Z</time>
      </trkpt>
      <trkpt lat="45.8550453" lon="8.4978819">
        <ele>695.1704102</ele>
        <time>2008-06-01T10:56:27Z</time>
      </trkpt>
      <trkpt lat="45.8550453" lon="8.4979463">
        <ele>697.5737305</ele>
        <time>2008-06-01T10:56:59Z</time>
      </trkpt>
      <trkpt lat="45.8550453" lon="8.4980106">
        <ele>697.0930176</ele>
        <time>2008-06-01T10:57:03Z</time>
      </trkpt>
      <trkpt lat="45.8552170" lon="8.4982252">
        <ele>696.6125488</ele>
        <time>2008-06-01T10:57:12Z</time>
      </trkpt>
      <trkpt lat="45.8555174" lon="8.4985900">
        <ele>696.6125488</ele>
        <time>2008-06-01T10:57:25Z</time>
      </trkpt>
      <trkpt lat="45.8558178" lon="8.4989333">
        <ele>695.6511230</ele>
        <time>2008-06-01T10:57:36Z</time>
      </trkpt>
      <trkpt lat="45.8561397" lon="8.4993625">
        <ele>694.2092285</ele>
        <time>2008-06-01T10:57:47Z</time>
      </trkpt>
      <trkpt lat="45.8562469" lon="8.4995127">
        <ele>693.2478027</ele>
        <time>2008-06-01T10:57:50Z</time>
      </trkpt>
      <trkpt lat="45.8563328" lon="8.4997058">
        <ele>691.8059082</ele>
        <time>2008-06-01T10:57:53Z</time>
      </trkpt>
      <trkpt lat="45.8564186" lon="8.5001135">
        <ele>688.9221191</ele>
        <time>2008-06-01T10:57:57Z</time>
      </trkpt>
      <trkpt lat="45.8564615" lon="8.5005856">
        <ele>687.4799805</ele>
        <time>2008-06-01T10:58:01Z</time>
      </trkpt>
      <trkpt lat="45.8566332" lon="8.5011435">
        <ele>685.5573730</ele>
        <time>2008-06-01T10:58:07Z</time>
      </trkpt>
      <trkpt lat="45.8566761" lon="8.5012078">
        <ele>685.5573730</ele>
        <time>2008-06-01T10:58:08Z</time>
      </trkpt>
      <trkpt lat="45.8567190" lon="8.5013580">
        <ele>684.5961914</ele>
        <time>2008-06-01T10:58:10Z</time>
      </trkpt>
      <trkpt lat="45.8566332" lon="8.5016155">
        <ele>684.5961914</ele>
        <time>2008-06-01T10:58:17Z</time>
      </trkpt>
      <trkpt lat="45.8565688" lon="8.5018086">
        <ele>685.0769043</ele>
        <time>2008-06-01T10:58:24Z</time>
      </trkpt>
      <trkpt lat="45.8564186" lon="8.5020232">
        <ele>685.0769043</ele>
        <time>2008-06-01T10:58:35Z</time>
      </trkpt>
      <trkpt lat="45.8563757" lon="8.5020661">
        <ele>686.5187988</ele>
        <time>2008-06-01T10:58:45Z</time>
      </trkpt>
      <trkpt lat="45.8562899" lon="8.5021520">
        <ele>689.4025879</ele>
        <time>2008-06-01T10:58:57Z</time>
      </trkpt>
      <trkpt lat="45.8562255" lon="8.5022807">
        <ele>690.8444824</ele>
        <time>2008-06-01T10:59:07Z</time>
      </trkpt>
      <trkpt lat="45.8561826" lon="8.5023665">
        <ele>693.2478027</ele>
        <time>2008-06-01T10:59:19Z</time>
      </trkpt>
      <trkpt lat="45.8561182" lon="8.5024524">
        <ele>695.6511230</ele>
        <time>2008-06-01T10:59:29Z</time>
      </trkpt>
      <trkpt lat="45.8560753" lon="8.5025597">
        <ele>699.0156250</ele>
        <time>2008-06-01T10:59:40Z</time>
      </trkpt>
      <trkpt lat="45.8560324" lon="8.5026240">
        <ele>699.9770508</ele>
        <time>2008-06-01T10:59:48Z</time>
      </trkpt>
      <trkpt lat="45.8559680" lon="8.5027099">
        <ele>698.0544434</ele>
        <time>2008-06-01T11:00:00Z</time>
      </trkpt>
      <trkpt lat="45.8559251" lon="8.5027313">
        <ele>696.1318359</ele>
        <time>2008-06-01T11:00:08Z</time>
      </trkpt>
      <trkpt lat="45.8558822" lon="8.5027957">
        <ele>698.0544434</ele>
        <time>2008-06-01T11:00:19Z</time>
      </trkpt>
      <trkpt lat="45.8558393" lon="8.5028601">
        <ele>700.9384766</ele>
        <time>2008-06-01T11:00:29Z</time>
      </trkpt>
      <trkpt lat="45.8558607" lon="8.5028815">
        <ele>701.8999023</ele>
        <time>2008-06-01T11:00:43Z</time>
      </trkpt>
      <trkpt lat="45.8558393" lon="8.5029244">
        <ele>706.2255859</ele>
        <time>2008-06-01T11:01:05Z</time>
      </trkpt>
      <trkpt lat="45.8557749" lon="8.5029888">
        <ele>707.1870117</ele>
        <time>2008-06-01T11:01:13Z</time>
      </trkpt>
      <trkpt lat="45.8557534" lon="8.5030746">
        <ele>707.6677246</ele>
        <time>2008-06-01T11:01:22Z</time>
      </trkpt>
      <trkpt lat="45.8557105" lon="8.5031605">
        <ele>712.4741211</ele>
        <time>2008-06-01T11:01:33Z</time>
      </trkpt>
      <trkpt lat="45.8556676" lon="8.5032678">
        <ele>714.3967285</ele>
        <time>2008-06-01T11:01:46Z</time>
      </trkpt>
      <trkpt lat="45.8556247" lon="8.5033751">
        <ele>716.3195801</ele>
        <time>2008-06-01T11:01:57Z</time>
      </trkpt>
      <trkpt lat="45.8556032" lon="8.5034609">
        <ele>718.2421875</ele>
        <time>2008-06-01T11:02:08Z</time>
      </trkpt>
      <trkpt lat="45.8555818" lon="8.5035253">
        <ele>722.0874023</ele>
        <time>2008-06-01T11:02:27Z</time>
      </trkpt>
      <trkpt lat="45.8555174" lon="8.5036111">
        <ele>724.0100098</ele>
        <time>2008-06-01T11:02:39Z</time>
      </trkpt>
      <trkpt lat="45.8554530" lon="8.5036755">
        <ele>724.4907227</ele>
        <time>2008-06-01T11:02:52Z</time>
      </trkpt>
      <trkpt lat="45.8553886" lon="8.5037613">
        <ele>724.9714355</ele>
        <time>2008-06-01T11:03:08Z</time>
      </trkpt>
      <trkpt lat="45.8553457" lon="8.5037827">
        <ele>728.3359375</ele>
        <time>2008-06-01T11:03:19Z</time>
      </trkpt>
      <trkpt lat="45.8552814" lon="8.5038471">
        <ele>731.2199707</ele>
        <time>2008-06-01T11:04:03Z</time>
      </trkpt>
      <trkpt lat="45.8552384" lon="8.5039115">
        <ele>731.2199707</ele>
        <time>2008-06-01T11:04:12Z</time>
      </trkpt>
      <trkpt lat="45.8551741" lon="8.5039330">
        <ele>733.6232910</ele>
        <time>2008-06-01T11:04:24Z</time>
      </trkpt>
      <trkpt lat="45.8551097" lon="8.5039330">
        <ele>734.5847168</ele>
        <time>2008-06-01T11:04:36Z</time>
      </trkpt>
      <trkpt lat="45.8550453" lon="8.5039544">
        <ele>735.0654297</ele>
        <time>2008-06-01T11:04:46Z</time>
      </trkpt>
      <trkpt lat="45.8549380" lon="8.5040402">
        <ele>743.2363281</ele>
        <time>2008-06-01T11:05:15Z</time>
      </trkpt>
      <trkpt lat="45.8547878" lon="8.5040617">
        <ele>743.2363281</ele>
        <time>2008-06-01T11:05:30Z</time>
      </trkpt>
      <trkpt lat="45.8546162" lon="8.5041690">
        <ele>743.2363281</ele>
        <time>2008-06-01T11:05:46Z</time>
      </trkpt>
      <trkpt lat="45.8544874" lon="8.5042763">
        <ele>741.3137207</ele>
        <time>2008-06-01T11:05:59Z</time>
      </trkpt>
      <trkpt lat="45.8544230" lon="8.5043621">
        <ele>741.7944336</ele>
        <time>2008-06-01T11:06:09Z</time>
      </trkpt>
      <trkpt lat="45.8543372" lon="8.5044479">
        <ele>742.7558594</ele>
        <time>2008-06-01T11:06:20Z</time>
      </trkpt>
      <trkpt lat="45.8542299" lon="8.5045552">
        <ele>743.2363281</ele>
        <time>2008-06-01T11:06:33Z</time>
      </trkpt>
      <trkpt lat="45.8541012" lon="8.5046196">
        <ele>744.1977539</ele>
        <time>2008-06-01T11:06:48Z</time>
      </trkpt>
      <trkpt lat="45.8540368" lon="8.5045981">
        <ele>745.1589355</ele>
        <time>2008-06-01T11:06:58Z</time>
      </trkpt>
      <trkpt lat="45.8539939" lon="8.5045981">
        <ele>745.1589355</ele>
        <time>2008-06-01T11:07:03Z</time>
      </trkpt>
      <trkpt lat="45.8538651" lon="8.5045338">
        <ele>746.6010742</ele>
        <time>2008-06-01T11:07:17Z</time>
      </trkpt>
      <trkpt lat="45.8538222" lon="8.5046196">
        <ele>746.6010742</ele>
        <time>2008-06-01T11:07:26Z</time>
      </trkpt>
      <trkpt lat="45.8538222" lon="8.5046196">
        <ele>746.6010742</ele>
        <time>2008-06-01T11:07:27Z</time>
      </trkpt>
      <trkpt lat="45.8538222" lon="8.5047913">
        <ele>747.5622559</ele>
        <time>2008-06-01T11:07:38Z</time>
      </trkpt>
      <trkpt lat="45.8537579" lon="8.5048985">
        <ele>748.0432129</ele>
        <time>2008-06-01T11:07:49Z</time>
      </trkpt>
      <trkpt lat="45.8535218" lon="8.5050917">
        <ele>747.5622559</ele>
        <time>2008-06-01T11:08:01Z</time>
      </trkpt>
      <trkpt lat="45.8533502" lon="8.5053062">
        <ele>746.6010742</ele>
        <time>2008-06-01T11:08:10Z</time>
      </trkpt>
      <trkpt lat="45.8532000" lon="8.5054135">
        <ele>748.0432129</ele>
        <time>2008-06-01T11:08:17Z</time>
      </trkpt>
      <trkpt lat="45.8529425" lon="8.5056067">
        <ele>748.5236816</ele>
        <time>2008-06-01T11:08:28Z</time>
      </trkpt>
      <trkpt lat="45.8527923" lon="8.5058212">
        <ele>749.9658203</ele>
        <time>2008-06-01T11:08:38Z</time>
      </trkpt>
      <trkpt lat="45.8526206" lon="8.5060787">
        <ele>749.9658203</ele>
        <time>2008-06-01T11:08:51Z</time>
      </trkpt>
      <trkpt lat="45.8525348" lon="8.5061216">
        <ele>749.4851074</ele>
        <time>2008-06-01T11:09:01Z</time>
      </trkpt>
      <trkpt lat="45.8524704" lon="8.5061646">
        <ele>749.4851074</ele>
        <time>2008-06-01T11:09:10Z</time>
      </trkpt>
      <trkpt lat="45.8524275" lon="8.5062289">
        <ele>751.4077148</ele>
        <time>2008-06-01T11:09:19Z</time>
      </trkpt>
      <trkpt lat="45.8524060" lon="8.5062718">
        <ele>752.8496094</ele>
        <time>2008-06-01T11:09:24Z</time>
      </trkpt>
      <trkpt lat="45.8523631" lon="8.5063791">
        <ele>756.2141113</ele>
        <time>2008-06-01T11:09:37Z</time>
      </trkpt>
      <trkpt lat="45.8523631" lon="8.5064006">
        <ele>750.9270020</ele>
        <time>2008-06-01T11:10:09Z</time>
      </trkpt>
      <trkpt lat="45.8523846" lon="8.5064435">
        <ele>774.4792480</ele>
        <time>2008-06-01T11:12:14Z</time>
      </trkpt>
      <trkpt lat="45.8523417" lon="8.5065508">
        <ele>772.5566406</ele>
        <time>2008-06-01T11:12:25Z</time>
      </trkpt>
      <trkpt lat="45.8523202" lon="8.5066581">
        <ele>773.9985352</ele>
        <time>2008-06-01T11:12:37Z</time>
      </trkpt>
      <trkpt lat="45.8523202" lon="8.5067654">
        <ele>773.5180664</ele>
        <time>2008-06-01T11:12:47Z</time>
      </trkpt>
      <trkpt lat="45.8522987" lon="8.5068083">
        <ele>773.5180664</ele>
        <time>2008-06-01T11:12:50Z</time>
      </trkpt>
      <trkpt lat="45.8522129" lon="8.5069156">
        <ele>772.0759277</ele>
        <time>2008-06-01T11:12:58Z</time>
      </trkpt>
      <trkpt lat="45.8520842" lon="8.5070658">
        <ele>771.1147461</ele>
        <time>2008-06-01T11:13:07Z</time>
      </trkpt>
      <trkpt lat="45.8519983" lon="8.5071516">
        <ele>770.6340332</ele>
        <time>2008-06-01T11:13:15Z</time>
      </trkpt>
      <trkpt lat="45.8518696" lon="8.5072160">
        <ele>771.1147461</ele>
        <time>2008-06-01T11:13:25Z</time>
      </trkpt>
      <trkpt lat="45.8516979" lon="8.5072589">
        <ele>771.5952148</ele>
        <time>2008-06-01T11:13:34Z</time>
      </trkpt>
      <trkpt lat="45.8515692" lon="8.5073018">
        <ele>772.0759277</ele>
        <time>2008-06-01T11:13:43Z</time>
      </trkpt>
      <trkpt lat="45.8513975" lon="8.5073662">
        <ele>771.5952148</ele>
        <time>2008-06-01T11:13:53Z</time>
      </trkpt>
      <trkpt lat="45.8512473" lon="8.5074091">
        <ele>770.6340332</ele>
        <time>2008-06-01T11:14:02Z</time>
      </trkpt>
      <trkpt lat="45.8510756" lon="8.5075164">
        <ele>771.5952148</ele>
        <time>2008-06-01T11:14:11Z</time>
      </trkpt>
      <trkpt lat="45.8508611" lon="8.5076666">
        <ele>771.1147461</ele>
        <time>2008-06-01T11:14:22Z</time>
      </trkpt>
      <trkpt lat="45.8506894" lon="8.5077953">
        <ele>770.1533203</ele>
        <time>2008-06-01T11:14:30Z</time>
      </trkpt>
      <trkpt lat="45.8504534" lon="8.5079241">
        <ele>769.1921387</ele>
        <time>2008-06-01T11:14:40Z</time>
      </trkpt>
      <trkpt lat="45.8502388" lon="8.5080314">
        <ele>769.1921387</ele>
        <time>2008-06-01T11:14:49Z</time>
      </trkpt>
      <trkpt lat="45.8500671" lon="8.5082459">
        <ele>769.1921387</ele>
        <time>2008-06-01T11:14:58Z</time>
      </trkpt>
      <trkpt lat="45.8498526" lon="8.5084391">
        <ele>769.1921387</ele>
        <time>2008-06-01T11:15:08Z</time>
      </trkpt>
      <trkpt lat="45.8496380" lon="8.5085249">
        <ele>769.6728516</ele>
        <time>2008-06-01T11:15:16Z</time>
      </trkpt>
      <trkpt lat="45.8494020" lon="8.5086536">
        <ele>770.6340332</ele>
        <time>2008-06-01T11:15:25Z</time>
      </trkpt>
      <trkpt lat="45.8492517" lon="8.5087180">
        <ele>770.6340332</ele>
        <time>2008-06-01T11:15:32Z</time>
      </trkpt>
      <trkpt lat="45.8490372" lon="8.5088468">
        <ele>769.6728516</ele>
        <time>2008-06-01T11:15:41Z</time>
      </trkpt>
      <trkpt lat="45.8487797" lon="8.5089540">
        <ele>768.7114258</ele>
        <time>2008-06-01T11:15:51Z</time>
      </trkpt>
      <trkpt lat="45.8485651" lon="8.5091257">
        <ele>767.7500000</ele>
        <time>2008-06-01T11:15:57Z</time>
      </trkpt>
      <trkpt lat="45.8481789" lon="8.5093617">
        <ele>766.7888184</ele>
        <time>2008-06-01T11:16:04Z</time>
      </trkpt>
      <trkpt lat="45.8479857" lon="8.5094476">
        <ele>766.7888184</ele>
        <time>2008-06-01T11:16:09Z</time>
      </trkpt>
      <trkpt lat="45.8478355" lon="8.5094905">
        <ele>767.2695313</ele>
        <time>2008-06-01T11:16:14Z</time>
      </trkpt>
      <trkpt lat="45.8475566" lon="8.5096622">
        <ele>765.3469238</ele>
        <time>2008-06-01T11:16:21Z</time>
      </trkpt>
      <trkpt lat="45.8474064" lon="8.5096407">
        <ele>765.3469238</ele>
        <time>2008-06-01T11:16:24Z</time>
      </trkpt>
      <trkpt lat="45.8470631" lon="8.5095978">
        <ele>765.3469238</ele>
        <time>2008-06-01T11:16:33Z</time>
      </trkpt>
      <trkpt lat="45.8467627" lon="8.5095334">
        <ele>767.2695313</ele>
        <time>2008-06-01T11:16:43Z</time>
      </trkpt>
      <trkpt lat="45.8464837" lon="8.5095119">
        <ele>768.7114258</ele>
        <time>2008-06-01T11:16:53Z</time>
      </trkpt>
      <trkpt lat="45.8462906" lon="8.5096192">
        <ele>765.3469238</ele>
        <time>2008-06-01T11:16:59Z</time>
      </trkpt>
      <trkpt lat="45.8462477" lon="8.5096407">
        <ele>764.8662109</ele>
        <time>2008-06-01T11:17:00Z</time>
      </trkpt>
      <trkpt lat="45.8458614" lon="8.5098338">
        <ele>761.9821777</ele>
        <time>2008-06-01T11:17:06Z</time>
      </trkpt>
      <trkpt lat="45.8453250" lon="8.5099840">
        <ele>757.6562500</ele>
        <time>2008-06-01T11:17:13Z</time>
      </trkpt>
      <trkpt lat="45.8448958" lon="8.5100698">
        <ele>754.2917480</ele>
        <time>2008-06-01T11:17:18Z</time>
      </trkpt>
      <trkpt lat="45.8444023" lon="8.5101128">
        <ele>752.8496094</ele>
        <time>2008-06-01T11:17:25Z</time>
      </trkpt>
      <trkpt lat="45.8441234" lon="8.5100055">
        <ele>750.4465332</ele>
        <time>2008-06-01T11:17:29Z</time>
      </trkpt>
      <trkpt lat="45.8437371" lon="8.5099411">
        <ele>749.4851074</ele>
        <time>2008-06-01T11:17:35Z</time>
      </trkpt>
      <trkpt lat="45.8433294" lon="8.5099411">
        <ele>748.5236816</ele>
        <time>2008-06-01T11:17:42Z</time>
      </trkpt>
      <trkpt lat="45.8429003" lon="8.5099196">
        <ele>747.0815430</ele>
        <time>2008-06-01T11:17:50Z</time>
      </trkpt>
      <trkpt lat="45.8424926" lon="8.5098553">
        <ele>745.6396484</ele>
        <time>2008-06-01T11:17:58Z</time>
      </trkpt>
      <trkpt lat="45.8421707" lon="8.5098338">
        <ele>743.7170410</ele>
        <time>2008-06-01T11:18:03Z</time>
      </trkpt>
      <trkpt lat="45.8419132" lon="8.5096836">
        <ele>744.1977539</ele>
        <time>2008-06-01T11:18:08Z</time>
      </trkpt>
      <trkpt lat="45.8417630" lon="8.5095763">
        <ele>744.1977539</ele>
        <time>2008-06-01T11:18:11Z</time>
      </trkpt>
      <trkpt lat="45.8416343" lon="8.5094476">
        <ele>745.1589355</ele>
        <time>2008-06-01T11:18:17Z</time>
      </trkpt>
      <trkpt lat="45.8416343" lon="8.5094261">
        <ele>744.6782227</ele>
        <time>2008-06-01T11:18:18Z</time>
      </trkpt>
      <trkpt lat="45.8415484" lon="8.5093832">
        <ele>744.6782227</ele>
        <time>2008-06-01T11:18:22Z</time>
      </trkpt>
      <trkpt lat="45.8414841" lon="8.5093188">
        <ele>746.6010742</ele>
        <time>2008-06-01T11:18:27Z</time>
      </trkpt>
      <trkpt lat="45.8413124" lon="8.5092330">
        <ele>749.9658203</ele>
        <time>2008-06-01T11:18:37Z</time>
      </trkpt>
      <trkpt lat="45.8411837" lon="8.5092330">
        <ele>753.3303223</ele>
        <time>2008-06-01T11:18:47Z</time>
      </trkpt>
      <trkpt lat="45.8410549" lon="8.5092545">
        <ele>754.2917480</ele>
        <time>2008-06-01T11:18:58Z</time>
      </trkpt>
      <trkpt lat="45.8409476" lon="8.5092759">
        <ele>755.2529297</ele>
        <time>2008-06-01T11:19:09Z</time>
      </trkpt>
      <trkpt lat="45.8408618" lon="8.5092974">
        <ele>755.2529297</ele>
        <time>2008-06-01T11:19:16Z</time>
      </trkpt>
      <trkpt lat="45.8407760" lon="8.5092974">
        <ele>755.2529297</ele>
        <time>2008-06-01T11:19:22Z</time>
      </trkpt>
      <trkpt lat="45.8406258" lon="8.5093188">
        <ele>755.7336426</ele>
        <time>2008-06-01T11:19:33Z</time>
      </trkpt>
      <trkpt lat="45.8404756" lon="8.5093188">
        <ele>757.1755371</ele>
        <time>2008-06-01T11:19:42Z</time>
      </trkpt>
      <trkpt lat="45.8402824" lon="8.5093403">
        <ele>757.1755371</ele>
        <time>2008-06-01T11:19:53Z</time>
      </trkpt>
      <trkpt lat="45.8401322" lon="8.5093617">
        <ele>757.1755371</ele>
        <time>2008-06-01T11:20:02Z</time>
      </trkpt>
      <trkpt lat="45.8399820" lon="8.5093617">
        <ele>758.6174316</ele>
        <time>2008-06-01T11:20:12Z</time>
      </trkpt>
      <trkpt lat="45.8397889" lon="8.5093188">
        <ele>757.6562500</ele>
        <time>2008-06-01T11:20:21Z</time>
      </trkpt>
      <trkpt lat="45.8395958" lon="8.5092974">
        <ele>757.6562500</ele>
        <time>2008-06-01T11:20:31Z</time>
      </trkpt>
      <trkpt lat="45.8393598" lon="8.5093832">
        <ele>756.6948242</ele>
        <time>2008-06-01T11:20:43Z</time>
      </trkpt>
      <trkpt lat="45.8391023" lon="8.5094261">
        <ele>757.1755371</ele>
        <time>2008-06-01T11:20:56Z</time>
      </trkpt>
      <trkpt lat="45.8388662" lon="8.5094476">
        <ele>756.2141113</ele>
        <time>2008-06-01T11:21:08Z</time>
      </trkpt>
      <trkpt lat="45.8386302" lon="8.5094476">
        <ele>757.1755371</ele>
        <time>2008-06-01T11:21:20Z</time>
      </trkpt>
      <trkpt lat="45.8383727" lon="8.5094905">
        <ele>757.1755371</ele>
        <time>2008-06-01T11:21:32Z</time>
      </trkpt>
      <trkpt lat="45.8382010" lon="8.5094690">
        <ele>756.6948242</ele>
        <time>2008-06-01T11:21:41Z</time>
      </trkpt>
      <trkpt lat="45.8379221" lon="8.5094905">
        <ele>757.6562500</ele>
        <time>2008-06-01T11:21:52Z</time>
      </trkpt>
      <trkpt lat="45.8377290" lon="8.5094690">
        <ele>757.6562500</ele>
        <time>2008-06-01T11:21:59Z</time>
      </trkpt>
      <trkpt lat="45.8376217" lon="8.5094905">
        <ele>758.1369629</ele>
        <time>2008-06-01T11:22:05Z</time>
      </trkpt>
      <trkpt lat="45.8374286" lon="8.5094047">
        <ele>760.0593262</ele>
        <time>2008-06-01T11:22:17Z</time>
      </trkpt>
      <trkpt lat="45.8373857" lon="8.5094047">
        <ele>760.0593262</ele>
        <time>2008-06-01T11:22:19Z</time>
      </trkpt>
      <trkpt lat="45.8372140" lon="8.5094690">
        <ele>761.5014648</ele>
        <time>2008-06-01T11:22:28Z</time>
      </trkpt>
      <trkpt lat="45.8370638" lon="8.5094905">
        <ele>761.9821777</ele>
        <time>2008-06-01T11:22:36Z</time>
      </trkpt>
      <trkpt lat="45.8369136" lon="8.5095334">
        <ele>761.9821777</ele>
        <time>2008-06-01T11:22:45Z</time>
      </trkpt>
      <trkpt lat="45.8368707" lon="8.5095549">
        <ele>762.4626465</ele>
        <time>2008-06-01T11:22:51Z</time>
      </trkpt>
      <trkpt lat="45.8367848" lon="8.5095978">
        <ele>762.4626465</ele>
        <time>2008-06-01T11:23:00Z</time>
      </trkpt>
      <trkpt lat="45.8366561" lon="8.5095978">
        <ele>762.9433594</ele>
        <time>2008-06-01T11:23:10Z</time>
      </trkpt>
      <trkpt lat="45.8365488" lon="8.5096192">
        <ele>764.3854980</ele>
        <time>2008-06-01T11:23:20Z</time>
      </trkpt>
      <trkpt lat="45.8364844" lon="8.5096836">
        <ele>765.8276367</ele>
        <time>2008-06-01T11:23:30Z</time>
      </trkpt>
      <trkpt lat="45.8364415" lon="8.5096836">
        <ele>765.8276367</ele>
        <time>2008-06-01T11:23:33Z</time>
      </trkpt>
      <trkpt lat="45.8363342" lon="8.5096622">
        <ele>767.7500000</ele>
        <time>2008-06-01T11:23:44Z</time>
      </trkpt>
      <trkpt lat="45.8362269" lon="8.5096407">
        <ele>768.2307129</ele>
        <time>2008-06-01T11:23:54Z</time>
      </trkpt>
      <trkpt lat="45.8360767" lon="8.5096622">
        <ele>768.7114258</ele>
        <time>2008-06-01T11:24:02Z</time>
      </trkpt>
      <trkpt lat="45.8359265" lon="8.5097051">
        <ele>768.2307129</ele>
        <time>2008-06-01T11:24:10Z</time>
      </trkpt>
      <trkpt lat="45.8357763" lon="8.5097480">
        <ele>768.2307129</ele>
        <time>2008-06-01T11:24:18Z</time>
      </trkpt>
      <trkpt lat="45.8355618" lon="8.5098124">
        <ele>769.6728516</ele>
        <time>2008-06-01T11:24:29Z</time>
      </trkpt>
      <trkpt lat="45.8353043" lon="8.5100055">
        <ele>771.5952148</ele>
        <time>2008-06-01T11:24:44Z</time>
      </trkpt>
      <trkpt lat="45.8351111" lon="8.5101771">
        <ele>770.1533203</ele>
        <time>2008-06-01T11:24:55Z</time>
      </trkpt>
      <trkpt lat="45.8347893" lon="8.5103703">
        <ele>773.5180664</ele>
        <time>2008-06-01T11:25:05Z</time>
      </trkpt>
      <trkpt lat="45.8344460" lon="8.5105634">
        <ele>772.5566406</ele>
        <time>2008-06-01T11:25:18Z</time>
      </trkpt>
      <trkpt lat="45.8341670" lon="8.5106707">
        <ele>772.5566406</ele>
        <time>2008-06-01T11:25:25Z</time>
      </trkpt>
      <trkpt lat="45.8339524" lon="8.5106921">
        <ele>770.1533203</ele>
        <time>2008-06-01T11:25:31Z</time>
      </trkpt>
      <trkpt lat="45.8338451" lon="8.5106921">
        <ele>768.7114258</ele>
        <time>2008-06-01T11:25:35Z</time>
      </trkpt>
      <trkpt lat="45.8337593" lon="8.5106707">
        <ele>766.7888184</ele>
        <time>2008-06-01T11:25:39Z</time>
      </trkpt>
      <trkpt lat="45.8335662" lon="8.5105848">
        <ele>764.3854980</ele>
        <time>2008-06-01T11:25:47Z</time>
      </trkpt>
      <trkpt lat="45.8334374" lon="8.5103917">
        <ele>762.4626465</ele>
        <time>2008-06-01T11:25:55Z</time>
      </trkpt>
      <trkpt lat="45.8332443" lon="8.5102201">
        <ele>756.2141113</ele>
        <time>2008-06-01T11:26:04Z</time>
      </trkpt>
      <trkpt lat="45.8329868" lon="8.5100698">
        <ele>753.8110352</ele>
        <time>2008-06-01T11:26:15Z</time>
      </trkpt>
      <trkpt lat="45.8327723" lon="8.5099840">
        <ele>754.7722168</ele>
        <time>2008-06-01T11:26:27Z</time>
      </trkpt>
      <trkpt lat="45.8323860" lon="8.5098338">
        <ele>751.8884277</ele>
        <time>2008-06-01T11:26:42Z</time>
      </trkpt>
      <trkpt lat="45.8319569" lon="8.5097694">
        <ele>751.8884277</ele>
        <time>2008-06-01T11:26:54Z</time>
      </trkpt>
      <trkpt lat="45.8316779" lon="8.5097694">
        <ele>750.4465332</ele>
        <time>2008-06-01T11:27:05Z</time>
      </trkpt>
      <trkpt lat="45.8315492" lon="8.5097480">
        <ele>752.3688965</ele>
        <time>2008-06-01T11:27:16Z</time>
      </trkpt>
      <trkpt lat="45.8315063" lon="8.5098338">
        <ele>746.6010742</ele>
        <time>2008-06-01T11:32:25Z</time>
      </trkpt>
      <trkpt lat="45.8314848" lon="8.5097694">
        <ele>743.7170410</ele>
        <time>2008-06-01T11:40:33Z</time>
      </trkpt>
      <trkpt lat="45.8313560" lon="8.5097265">
        <ele>743.2363281</ele>
        <time>2008-06-01T11:40:42Z</time>
      </trkpt>
      <trkpt lat="45.8310771" lon="8.5096622">
        <ele>743.2363281</ele>
        <time>2008-06-01T11:40:53Z</time>
      </trkpt>
      <trkpt lat="45.8306479" lon="8.5095978">
        <ele>742.7558594</ele>
        <time>2008-06-01T11:41:07Z</time>
      </trkpt>
      <trkpt lat="45.8303690" lon="8.5095763">
        <ele>745.1589355</ele>
        <time>2008-06-01T11:41:20Z</time>
      </trkpt>
      <trkpt lat="45.8302188" lon="8.5096622">
        <ele>746.1203613</ele>
        <time>2008-06-01T11:41:30Z</time>
      </trkpt>
      <trkpt lat="45.8300471" lon="8.5098338">
        <ele>751.4077148</ele>
        <time>2008-06-01T11:41:44Z</time>
      </trkpt>
      <trkpt lat="45.8299184" lon="8.5100055">
        <ele>753.8110352</ele>
        <time>2008-06-01T11:42:00Z</time>
      </trkpt>
      <trkpt lat="45.8298969" lon="8.5101128">
        <ele>757.6562500</ele>
        <time>2008-06-01T11:42:14Z</time>
      </trkpt>
      <trkpt lat="45.8298326" lon="8.5102415">
        <ele>760.0593262</ele>
        <time>2008-06-01T11:42:26Z</time>
      </trkpt>
      <trkpt lat="45.8297682" lon="8.5103703">
        <ele>761.5014648</ele>
        <time>2008-06-01T11:42:41Z</time>
      </trkpt>
      <trkpt lat="45.8296394" lon="8.5105848">
        <ele>760.5400391</ele>
        <time>2008-06-01T11:42:54Z</time>
      </trkpt>
      <trkpt lat="45.8284807" lon="8.5116148">
        <ele>761.0207520</ele>
        <time>2008-06-01T11:43:21Z</time>
      </trkpt>
      <trkpt lat="45.8279657" lon="8.5121083">
        <ele>757.6562500</ele>
        <time>2008-06-01T11:43:38Z</time>
      </trkpt>
      <trkpt lat="45.8272147" lon="8.5134816">
        <ele>756.6948242</ele>
        <time>2008-06-01T11:44:03Z</time>
      </trkpt>
      <trkpt lat="45.8268070" lon="8.5140824">
        <ele>757.6562500</ele>
        <time>2008-06-01T11:44:17Z</time>
      </trkpt>
      <trkpt lat="45.8262277" lon="8.5148978">
        <ele>757.6562500</ele>
        <time>2008-06-01T11:44:26Z</time>
      </trkpt>
      <trkpt lat="45.8258200" lon="8.5153484">
        <ele>757.6562500</ele>
        <time>2008-06-01T11:44:37Z</time>
      </trkpt>
      <trkpt lat="45.8254337" lon="8.5157561">
        <ele>755.2529297</ele>
        <time>2008-06-01T11:44:51Z</time>
      </trkpt>
      <trkpt lat="45.8255196" lon="8.5155630">
        <ele>739.8718262</ele>
        <time>2008-06-01T11:45:55Z</time>
      </trkpt>
      <trkpt lat="45.8253479" lon="8.5156918">
        <ele>738.9106445</ele>
        <time>2008-06-01T11:46:00Z</time>
      </trkpt>
      <trkpt lat="45.8251333" lon="8.5160995">
        <ele>737.4685059</ele>
        <time>2008-06-01T11:46:11Z</time>
      </trkpt>
      <trkpt lat="45.8251333" lon="8.5161209">
        <ele>737.4685059</ele>
        <time>2008-06-01T11:46:12Z</time>
      </trkpt>
      <trkpt lat="45.8242536" lon="8.5163784">
        <ele>645.1818848</ele>
        <time>2008-06-01T11:46:45Z</time>
      </trkpt>
      <trkpt lat="45.8239317" lon="8.5174942">
        <ele>646.6240234</ele>
        <time>2008-06-01T11:46:47Z</time>
      </trkpt>
      <trkpt lat="45.8238673" lon="8.5175586">
        <ele>647.1044922</ele>
        <time>2008-06-01T11:46:49Z</time>
      </trkpt>
      <trkpt lat="45.8239961" lon="8.5180092">
        <ele>644.2207031</ele>
        <time>2008-06-01T11:46:56Z</time>
      </trkpt>
      <trkpt lat="45.8241677" lon="8.5183311">
        <ele>646.6240234</ele>
        <time>2008-06-01T11:47:03Z</time>
      </trkpt>
      <trkpt lat="45.8242965" lon="8.5185456">
        <ele>649.5078125</ele>
        <time>2008-06-01T11:47:08Z</time>
      </trkpt>
      <trkpt lat="45.8242321" lon="8.5186744">
        <ele>649.5078125</ele>
        <time>2008-06-01T11:47:14Z</time>
      </trkpt>
      <trkpt lat="45.8241248" lon="8.5187387">
        <ele>649.5078125</ele>
        <time>2008-06-01T11:47:20Z</time>
      </trkpt>
      <trkpt lat="45.8238888" lon="8.5188675">
        <ele>650.4692383</ele>
        <time>2008-06-01T11:47:31Z</time>
      </trkpt>
      <trkpt lat="45.8237815" lon="8.5189319">
        <ele>649.0270996</ele>
        <time>2008-06-01T11:47:39Z</time>
      </trkpt>
      <trkpt lat="45.8237815" lon="8.5189319">
        <ele>649.0270996</ele>
        <time>2008-06-01T11:47:40Z</time>
      </trkpt>
      <trkpt lat="45.8236957" lon="8.5189104">
        <ele>655.7565918</ele>
        <time>2008-06-01T13:22:36Z</time>
      </trkpt>
      <trkpt lat="45.8236957" lon="8.5189748">
        <ele>644.7011719</ele>
        <time>2008-06-01T13:22:47Z</time>
      </trkpt>
      <trkpt lat="45.8236098" lon="8.5189962">
        <ele>645.1818848</ele>
        <time>2008-06-01T13:22:51Z</time>
      </trkpt>
      <trkpt lat="45.8232880" lon="8.5191250">
        <ele>646.1433105</ele>
        <time>2008-06-01T13:23:03Z</time>
      </trkpt>
      <trkpt lat="45.8231163" lon="8.5192752">
        <ele>646.6240234</ele>
        <time>2008-06-01T13:23:11Z</time>
      </trkpt>
      <trkpt lat="45.8230305" lon="8.5194254">
        <ele>645.1818848</ele>
        <time>2008-06-01T13:23:18Z</time>
      </trkpt>
      <trkpt lat="45.8228159" lon="8.5195971">
        <ele>643.2592773</ele>
        <time>2008-06-01T13:23:28Z</time>
      </trkpt>
      <trkpt lat="45.8225584" lon="8.5197473">
        <ele>641.8173828</ele>
        <time>2008-06-01T13:23:35Z</time>
      </trkpt>
      <trkpt lat="45.8221292" lon="8.5198116">
        <ele>640.8559570</ele>
        <time>2008-06-01T13:23:45Z</time>
      </trkpt>
      <trkpt lat="45.8216572" lon="8.5199618">
        <ele>639.4140625</ele>
        <time>2008-06-01T13:23:58Z</time>
      </trkpt>
      <trkpt lat="45.8212709" lon="8.5202193">
        <ele>637.4914551</ele>
        <time>2008-06-01T13:24:11Z</time>
      </trkpt>
      <trkpt lat="45.8207989" lon="8.5206485">
        <ele>632.2041016</ele>
        <time>2008-06-01T13:24:27Z</time>
      </trkpt>
      <trkpt lat="45.8204556" lon="8.5209274">
        <ele>631.7233887</ele>
        <time>2008-06-01T13:24:35Z</time>
      </trkpt>
      <trkpt lat="45.8202624" lon="8.5210776">
        <ele>631.7233887</ele>
        <time>2008-06-01T13:24:41Z</time>
      </trkpt>
      <trkpt lat="45.8198762" lon="8.5212064">
        <ele>631.7233887</ele>
        <time>2008-06-01T13:24:51Z</time>
      </trkpt>
      <trkpt lat="45.8197045" lon="8.5211635">
        <ele>630.7622070</ele>
        <time>2008-06-01T13:24:55Z</time>
      </trkpt>
      <trkpt lat="45.8192968" lon="8.5215497">
        <ele>626.4362793</ele>
        <time>2008-06-01T13:25:04Z</time>
      </trkpt>
      <trkpt lat="45.8189106" lon="8.5220432">
        <ele>623.5524902</ele>
        <time>2008-06-01T13:25:13Z</time>
      </trkpt>
      <trkpt lat="45.8187389" lon="8.5220003">
        <ele>622.5910645</ele>
        <time>2008-06-01T13:25:17Z</time>
      </trkpt>
      <trkpt lat="45.8182883" lon="8.5214853">
        <ele>621.1491699</ele>
        <time>2008-06-01T13:25:29Z</time>
      </trkpt>
      <trkpt lat="45.8178806" lon="8.5209489">
        <ele>619.7070313</ele>
        <time>2008-06-01T13:25:41Z</time>
      </trkpt>
      <trkpt lat="45.8174300" lon="8.5203266">
        <ele>619.7070313</ele>
        <time>2008-06-01T13:25:55Z</time>
      </trkpt>
      <trkpt lat="45.8174515" lon="8.5200477">
        <ele>619.7070313</ele>
        <time>2008-06-01T13:26:00Z</time>
      </trkpt>
      <trkpt lat="45.8172798" lon="8.5197687">
        <ele>619.7070313</ele>
        <time>2008-06-01T13:26:06Z</time>
      </trkpt>
      <trkpt lat="45.8171725" lon="8.5196614">
        <ele>619.7070313</ele>
        <time>2008-06-01T13:26:09Z</time>
      </trkpt>
      <trkpt lat="45.8169580" lon="8.5192752">
        <ele>619.7070313</ele>
        <time>2008-06-01T13:26:17Z</time>
      </trkpt>
      <trkpt lat="45.8166361" lon="8.5186958">
        <ele>619.7070313</ele>
        <time>2008-06-01T13:26:29Z</time>
      </trkpt>
      <trkpt lat="45.8161855" lon="8.5181379">
        <ele>618.7456055</ele>
        <time>2008-06-01T13:26:43Z</time>
      </trkpt>
      <trkpt lat="45.8157778" lon="8.5178590">
        <ele>618.7456055</ele>
        <time>2008-06-01T13:26:53Z</time>
      </trkpt>
      <trkpt lat="45.8152413" lon="8.5174942">
        <ele>619.7070313</ele>
        <time>2008-06-01T13:27:06Z</time>
      </trkpt>
      <trkpt lat="45.8147264" lon="8.5170221">
        <ele>621.1491699</ele>
        <time>2008-06-01T13:27:20Z</time>
      </trkpt>
      <trkpt lat="45.8145332" lon="8.5167217">
        <ele>621.6296387</ele>
        <time>2008-06-01T13:27:27Z</time>
      </trkpt>
      <trkpt lat="45.8144474" lon="8.5165715">
        <ele>622.1103516</ele>
        <time>2008-06-01T13:27:30Z</time>
      </trkpt>
      <trkpt lat="45.8142757" lon="8.5165071">
        <ele>622.5910645</ele>
        <time>2008-06-01T13:27:34Z</time>
      </trkpt>
      <trkpt lat="45.8141899" lon="8.5165286">
        <ele>622.5910645</ele>
        <time>2008-06-01T13:27:36Z</time>
      </trkpt>
      <trkpt lat="45.8137608" lon="8.5166788">
        <ele>622.1103516</ele>
        <time>2008-06-01T13:27:44Z</time>
      </trkpt>
      <trkpt lat="45.8131385" lon="8.5166788">
        <ele>622.5910645</ele>
        <time>2008-06-01T13:27:52Z</time>
      </trkpt>
      <trkpt lat="45.8122373" lon="8.5165286">
        <ele>621.6296387</ele>
        <time>2008-06-01T13:28:04Z</time>
      </trkpt>
      <trkpt lat="45.8116364" lon="8.5164428">
        <ele>620.1877441</ele>
        <time>2008-06-01T13:28:15Z</time>
      </trkpt>
      <trkpt lat="45.8116794" lon="8.5164857">
        <ele>617.7841797</ele>
        <time>2008-06-01T13:28:52Z</time>
      </trkpt>
      <trkpt lat="45.8117652" lon="8.5165501">
        <ele>613.4584961</ele>
        <time>2008-06-01T13:29:03Z</time>
      </trkpt>
      <trkpt lat="45.8116579" lon="8.5165715">
        <ele>610.0937500</ele>
        <time>2008-06-01T13:29:16Z</time>
      </trkpt>
      <trkpt lat="45.8115077" lon="8.5165930">
        <ele>608.1713867</ele>
        <time>2008-06-01T13:29:26Z</time>
      </trkpt>
      <trkpt lat="45.8112717" lon="8.5167217">
        <ele>607.6906738</ele>
        <time>2008-06-01T13:29:35Z</time>
      </trkpt>
      <trkpt lat="45.8109069" lon="8.5168719">
        <ele>604.8066406</ele>
        <time>2008-06-01T13:29:44Z</time>
      </trkpt>
      <trkpt lat="45.8106494" lon="8.5169363">
        <ele>604.3261719</ele>
        <time>2008-06-01T13:29:51Z</time>
      </trkpt>
      <trkpt lat="45.8105206" lon="8.5170650">
        <ele>601.4418945</ele>
        <time>2008-06-01T13:29:58Z</time>
      </trkpt>
      <trkpt lat="45.8104563" lon="8.5170650">
        <ele>596.6354980</ele>
        <time>2008-06-01T13:30:06Z</time>
      </trkpt>
      <trkpt lat="45.8103490" lon="8.5170007">
        <ele>585.0996094</ele>
        <time>2008-06-01T13:30:30Z</time>
      </trkpt>
      <trkpt lat="45.8103061" lon="8.5170865">
        <ele>585.0996094</ele>
        <time>2008-06-01T13:30:32Z</time>
      </trkpt>
      <trkpt lat="45.8101773" lon="8.5172153">
        <ele>584.6188965</ele>
        <time>2008-06-01T13:30:35Z</time>
      </trkpt>
      <trkpt lat="45.8100915" lon="8.5173011">
        <ele>584.1381836</ele>
        <time>2008-06-01T13:30:37Z</time>
      </trkpt>
      <trkpt lat="45.8100271" lon="8.5174084">
        <ele>582.2155762</ele>
        <time>2008-06-01T13:30:39Z</time>
      </trkpt>
      <trkpt lat="45.8099627" lon="8.5175371">
        <ele>581.7348633</ele>
        <time>2008-06-01T13:30:41Z</time>
      </trkpt>
      <trkpt lat="45.8098769" lon="8.5178590">
        <ele>580.7736816</ele>
        <time>2008-06-01T13:30:45Z</time>
      </trkpt>
      <trkpt lat="45.8098340" lon="8.5182667">
        <ele>578.8510742</ele>
        <time>2008-06-01T13:30:51Z</time>
      </trkpt>
      <trkpt lat="45.8097696" lon="8.5183311">
        <ele>571.6408691</ele>
        <time>2008-06-01T13:31:33Z</time>
      </trkpt>
      <trkpt lat="45.8097696" lon="8.5183311">
        <ele>571.1604004</ele>
        <time>2008-06-01T13:31:34Z</time>
      </trkpt>
      <trkpt lat="45.8098125" lon="8.5187602">
        <ele>568.2763672</ele>
        <time>2008-06-01T13:31:45Z</time>
      </trkpt>
      <trkpt lat="45.8098340" lon="8.5188460">
        <ele>568.2763672</ele>
        <time>2008-06-01T13:31:47Z</time>
      </trkpt>
      <trkpt lat="45.8097482" lon="8.5192537">
        <ele>568.2763672</ele>
        <time>2008-06-01T13:31:55Z</time>
      </trkpt>
      <trkpt lat="45.8096838" lon="8.5194683">
        <ele>568.2763672</ele>
        <time>2008-06-01T13:31:57Z</time>
      </trkpt>
      <trkpt lat="45.8095121" lon="8.5196400">
        <ele>565.3925781</ele>
        <time>2008-06-01T13:32:01Z</time>
      </trkpt>
      <trkpt lat="45.8094263" lon="8.5195756">
        <ele>563.4699707</ele>
        <time>2008-06-01T13:32:04Z</time>
      </trkpt>
      <trkpt lat="45.8092761" lon="8.5193610">
        <ele>559.1440430</ele>
        <time>2008-06-01T13:32:12Z</time>
      </trkpt>
      <trkpt lat="45.8091903" lon="8.5191894">
        <ele>555.7792969</ele>
        <time>2008-06-01T13:32:19Z</time>
      </trkpt>
      <trkpt lat="45.8090186" lon="8.5190606">
        <ele>552.4145508</ele>
        <time>2008-06-01T13:32:27Z</time>
      </trkpt>
      <trkpt lat="45.8087826" lon="8.5189104">
        <ele>549.0500488</ele>
        <time>2008-06-01T13:32:34Z</time>
      </trkpt>
      <trkpt lat="45.8086109" lon="8.5190606">
        <ele>545.2048340</ele>
        <time>2008-06-01T13:32:39Z</time>
      </trkpt>
      <trkpt lat="45.8084822" lon="8.5194254">
        <ele>540.8789063</ele>
        <time>2008-06-01T13:32:44Z</time>
      </trkpt>
      <trkpt lat="45.8084178" lon="8.5195971">
        <ele>539.9176025</ele>
        <time>2008-06-01T13:32:46Z</time>
      </trkpt>
      <trkpt lat="45.8083105" lon="8.5198975">
        <ele>538.4757080</ele>
        <time>2008-06-01T13:32:51Z</time>
      </trkpt>
      <trkpt lat="45.8082891" lon="8.5200691">
        <ele>537.9949951</ele>
        <time>2008-06-01T13:32:56Z</time>
      </trkpt>
      <trkpt lat="45.8082032" lon="8.5203266">
        <ele>537.9949951</ele>
        <time>2008-06-01T13:33:00Z</time>
      </trkpt>
      <trkpt lat="45.8081603" lon="8.5205197">
        <ele>537.9949951</ele>
        <time>2008-06-01T13:33:02Z</time>
      </trkpt>
      <trkpt lat="45.8080316" lon="8.5208416">
        <ele>537.5142822</ele>
        <time>2008-06-01T13:33:06Z</time>
      </trkpt>
      <trkpt lat="45.8079886" lon="8.5208845">
        <ele>537.5142822</ele>
        <time>2008-06-01T13:33:07Z</time>
      </trkpt>
      <trkpt lat="45.8077741" lon="8.5211635">
        <ele>534.1496582</ele>
        <time>2008-06-01T13:33:13Z</time>
      </trkpt>
      <trkpt lat="45.8076882" lon="8.5214639">
        <ele>528.8625488</ele>
        <time>2008-06-01T13:33:21Z</time>
      </trkpt>
      <trkpt lat="45.8076453" lon="8.5216784">
        <ele>525.9783936</ele>
        <time>2008-06-01T13:33:24Z</time>
      </trkpt>
      <trkpt lat="45.8074093" lon="8.5221076">
        <ele>520.2105713</ele>
        <time>2008-06-01T13:33:43Z</time>
      </trkpt>
      <trkpt lat="45.8073664" lon="8.5224295">
        <ele>517.8072510</ele>
        <time>2008-06-01T13:33:53Z</time>
      </trkpt>
      <trkpt lat="45.8073020" lon="8.5229015">
        <ele>516.8459473</ele>
        <time>2008-06-01T13:34:03Z</time>
      </trkpt>
      <trkpt lat="45.8072591" lon="8.5233092">
        <ele>512.5200195</ele>
        <time>2008-06-01T13:34:11Z</time>
      </trkpt>
      <trkpt lat="45.8071947" lon="8.5233951">
        <ele>510.5972900</ele>
        <time>2008-06-01T13:34:13Z</time>
      </trkpt>
      <trkpt lat="45.8068943" lon="8.5234380">
        <ele>507.2327881</ele>
        <time>2008-06-01T13:34:20Z</time>
      </trkpt>
      <trkpt lat="45.8067012" lon="8.5234594">
        <ele>500.5035400</ele>
        <time>2008-06-01T13:34:26Z</time>
      </trkpt>
      <trkpt lat="45.8067012" lon="8.5235023">
        <ele>499.0615234</ele>
        <time>2008-06-01T13:34:28Z</time>
      </trkpt>
      <trkpt lat="45.8068299" lon="8.5237813">
        <ele>458.2055664</ele>
        <time>2008-06-01T13:36:01Z</time>
      </trkpt>
      <trkpt lat="45.8069158" lon="8.5238242">
        <ele>455.8022461</ele>
        <time>2008-06-01T13:36:05Z</time>
      </trkpt>
      <trkpt lat="45.8072376" lon="8.5241032">
        <ele>452.4376221</ele>
        <time>2008-06-01T13:36:17Z</time>
      </trkpt>
      <trkpt lat="45.8071947" lon="8.5242105">
        <ele>453.8796387</ele>
        <time>2008-06-01T13:36:22Z</time>
      </trkpt>
      <trkpt lat="45.8068943" lon="8.5247469">
        <ele>454.8408203</ele>
        <time>2008-06-01T13:36:30Z</time>
      </trkpt>
      <trkpt lat="45.8066154" lon="8.5251760">
        <ele>453.3989258</ele>
        <time>2008-06-01T13:36:37Z</time>
      </trkpt>
      <trkpt lat="45.8064222" lon="8.5251760">
        <ele>450.0344238</ele>
        <time>2008-06-01T13:36:41Z</time>
      </trkpt>
      <trkpt lat="45.8061433" lon="8.5250902">
        <ele>442.8244629</ele>
        <time>2008-06-01T13:36:49Z</time>
      </trkpt>
      <trkpt lat="45.8060360" lon="8.5251117">
        <ele>441.3824463</ele>
        <time>2008-06-01T13:36:51Z</time>
      </trkpt>
      <trkpt lat="45.8057570" lon="8.5253048">
        <ele>438.4985352</ele>
        <time>2008-06-01T13:36:56Z</time>
      </trkpt>
      <trkpt lat="45.8057141" lon="8.5254335">
        <ele>435.6145020</ele>
        <time>2008-06-01T13:36:59Z</time>
      </trkpt>
      <trkpt lat="45.8057356" lon="8.5254979">
        <ele>434.1726074</ele>
        <time>2008-06-01T13:37:00Z</time>
      </trkpt>
      <trkpt lat="45.8058858" lon="8.5258198">
        <ele>426.9627686</ele>
        <time>2008-06-01T13:37:04Z</time>
      </trkpt>
      <trkpt lat="45.8059502" lon="8.5262918">
        <ele>420.7141113</ele>
        <time>2008-06-01T13:37:08Z</time>
      </trkpt>
      <trkpt lat="45.8058858" lon="8.5265064">
        <ele>417.8302002</ele>
        <time>2008-06-01T13:37:10Z</time>
      </trkpt>
      <trkpt lat="45.8055854" lon="8.5273433">
        <ele>410.6202393</ele>
        <time>2008-06-01T13:37:17Z</time>
      </trkpt>
      <trkpt lat="45.8054781" lon="8.5275364">
        <ele>409.1783447</ele>
        <time>2008-06-01T13:37:19Z</time>
      </trkpt>
      <trkpt lat="45.8054137" lon="8.5280299">
        <ele>402.9296875</ele>
        <time>2008-06-01T13:37:24Z</time>
      </trkpt>
      <trkpt lat="45.8053923" lon="8.5282445">
        <ele>401.4877930</ele>
        <time>2008-06-01T13:37:26Z</time>
      </trkpt>
      <trkpt lat="45.8052850" lon="8.5285234">
        <ele>400.0458984</ele>
        <time>2008-06-01T13:37:29Z</time>
      </trkpt>
      <trkpt lat="45.8050704" lon="8.5287380">
        <ele>398.6037598</ele>
        <time>2008-06-01T13:37:32Z</time>
      </trkpt>
      <trkpt lat="45.8047915" lon="8.5288668">
        <ele>396.6811523</ele>
        <time>2008-06-01T13:37:35Z</time>
      </trkpt>
      <trkpt lat="45.8044052" lon="8.5294032">
        <ele>393.3165283</ele>
        <time>2008-06-01T13:37:40Z</time>
      </trkpt>
      <trkpt lat="45.8040833" lon="8.5301328">
        <ele>390.9132080</ele>
        <time>2008-06-01T13:37:46Z</time>
      </trkpt>
      <trkpt lat="45.8038473" lon="8.5304761">
        <ele>389.9519043</ele>
        <time>2008-06-01T13:37:50Z</time>
      </trkpt>
      <trkpt lat="45.8037186" lon="8.5305834">
        <ele>389.4711914</ele>
        <time>2008-06-01T13:37:52Z</time>
      </trkpt>
      <trkpt lat="45.8035898" lon="8.5307121">
        <ele>389.4711914</ele>
        <time>2008-06-01T13:37:54Z</time>
      </trkpt>
      <trkpt lat="45.8032465" lon="8.5312915">
        <ele>386.1066895</ele>
        <time>2008-06-01T13:38:02Z</time>
      </trkpt>
      <trkpt lat="45.8030534" lon="8.5313129">
        <ele>383.2226563</ele>
        <time>2008-06-01T13:38:06Z</time>
      </trkpt>
      <trkpt lat="45.8029461" lon="8.5312700">
        <ele>382.2613525</ele>
        <time>2008-06-01T13:38:08Z</time>
      </trkpt>
      <trkpt lat="45.8026671" lon="8.5313559">
        <ele>376.9742432</ele>
        <time>2008-06-01T13:38:13Z</time>
      </trkpt>
      <trkpt lat="45.8026028" lon="8.5314202">
        <ele>376.0128174</ele>
        <time>2008-06-01T13:38:14Z</time>
      </trkpt>
      <trkpt lat="45.8021951" lon="8.5316563">
        <ele>371.2062988</ele>
        <time>2008-06-01T13:38:20Z</time>
      </trkpt>
      <trkpt lat="45.8018303" lon="8.5314846">
        <ele>367.8415527</ele>
        <time>2008-06-01T13:38:25Z</time>
      </trkpt>
      <trkpt lat="45.8017659" lon="8.5314202">
        <ele>367.3609619</ele>
        <time>2008-06-01T13:38:26Z</time>
      </trkpt>
      <trkpt lat="45.8012295" lon="8.5310769">
        <ele>363.9963379</ele>
        <time>2008-06-01T13:38:35Z</time>
      </trkpt>
      <trkpt lat="45.8010149" lon="8.5310555">
        <ele>362.5543213</ele>
        <time>2008-06-01T13:38:39Z</time>
      </trkpt>
      <trkpt lat="45.8005428" lon="8.5311842">
        <ele>361.1124268</ele>
        <time>2008-06-01T13:38:49Z</time>
      </trkpt>
      <trkpt lat="45.8000493" lon="8.5313344">
        <ele>360.6317139</ele>
        <time>2008-06-01T13:39:02Z</time>
      </trkpt>
      <trkpt lat="45.7998133" lon="8.5315275">
        <ele>359.6704102</ele>
        <time>2008-06-01T13:39:08Z</time>
      </trkpt>
      <trkpt lat="45.7996845" lon="8.5316992">
        <ele>359.6704102</ele>
        <time>2008-06-01T13:39:11Z</time>
      </trkpt>
      <trkpt lat="45.7994914" lon="8.5319352">
        <ele>358.7089844</ele>
        <time>2008-06-01T13:39:16Z</time>
      </trkpt>
      <trkpt lat="45.7990837" lon="8.5318923">
        <ele>359.6704102</ele>
        <time>2008-06-01T13:39:26Z</time>
      </trkpt>
      <trkpt lat="45.7987404" lon="8.5318708">
        <ele>359.6704102</ele>
        <time>2008-06-01T13:39:35Z</time>
      </trkpt>
      <trkpt lat="45.7985473" lon="8.5319138">
        <ele>357.7478027</ele>
        <time>2008-06-01T13:39:40Z</time>
      </trkpt>
      <trkpt lat="45.7983971" lon="8.5321927">
        <ele>357.2670898</ele>
        <time>2008-06-01T13:39:45Z</time>
      </trkpt>
      <trkpt lat="45.7981825" lon="8.5323644">
        <ele>356.3057861</ele>
        <time>2008-06-01T13:39:49Z</time>
      </trkpt>
      <trkpt lat="45.7979035" lon="8.5323429">
        <ele>353.4218750</ele>
        <time>2008-06-01T13:39:52Z</time>
      </trkpt>
      <trkpt lat="45.7975817" lon="8.5323644">
        <ele>348.1346436</ele>
        <time>2008-06-01T13:39:55Z</time>
      </trkpt>
      <trkpt lat="45.7972383" lon="8.5323429">
        <ele>342.8472900</ele>
        <time>2008-06-01T13:39:59Z</time>
      </trkpt>
      <trkpt lat="45.7971096" lon="8.5323858">
        <ele>339.9633789</ele>
        <time>2008-06-01T13:40:03Z</time>
      </trkpt>
      <trkpt lat="45.7969165" lon="8.5325789">
        <ele>333.2341309</ele>
        <time>2008-06-01T13:40:12Z</time>
      </trkpt>
      <trkpt lat="45.7968307" lon="8.5326862">
        <ele>330.3502197</ele>
        <time>2008-06-01T13:40:16Z</time>
      </trkpt>
      <trkpt lat="45.7968736" lon="8.5327721">
        <ele>328.4276123</ele>
        <time>2008-06-01T13:40:23Z</time>
      </trkpt>
      <trkpt lat="45.7968736" lon="8.5331368">
        <ele>330.8309326</ele>
        <time>2008-06-01T13:40:53Z</time>
      </trkpt>
      <trkpt lat="45.7967448" lon="8.5331798">
        <ele>312.5657959</ele>
        <time>2008-06-01T13:42:20Z</time>
      </trkpt>
      <trkpt lat="45.7963586" lon="8.5333729">
        <ele>311.1237793</ele>
        <time>2008-06-01T13:42:32Z</time>
      </trkpt>
      <trkpt lat="45.7960582" lon="8.5334802">
        <ele>309.6818848</ele>
        <time>2008-06-01T13:42:40Z</time>
      </trkpt>
      <trkpt lat="45.7958221" lon="8.5335231">
        <ele>306.3172607</ele>
        <time>2008-06-01T13:42:50Z</time>
      </trkpt>
      <trkpt lat="45.7957149" lon="8.5335445">
        <ele>305.8366699</ele>
        <time>2008-06-01T13:43:01Z</time>
      </trkpt>
      <trkpt lat="45.7956505" lon="8.5335445">
        <ele>305.8366699</ele>
        <time>2008-06-01T13:43:10Z</time>
      </trkpt>
      <trkpt lat="45.7955003" lon="8.5337162">
        <ele>301.0299072</ele>
        <time>2008-06-01T13:43:22Z</time>
      </trkpt>
      <trkpt lat="45.7953715" lon="8.5339522">
        <ele>296.7041016</ele>
        <time>2008-06-01T13:43:29Z</time>
      </trkpt>
      <trkpt lat="45.7951784" lon="8.5340810">
        <ele>287.5714111</ele>
        <time>2008-06-01T13:43:34Z</time>
      </trkpt>
      <trkpt lat="45.7951355" lon="8.5341239">
        <ele>279.4002686</ele>
        <time>2008-06-01T13:43:45Z</time>
      </trkpt>
      <trkpt lat="45.7950497" lon="8.5342312">
        <ele>259.6933594</ele>
        <time>2008-06-01T13:44:51Z</time>
      </trkpt>
      <trkpt lat="45.7949853" lon="8.5342312">
        <ele>257.7707520</ele>
        <time>2008-06-01T13:44:55Z</time>
      </trkpt>
      <trkpt lat="45.7947063" lon="8.5343170">
        <ele>251.5220947</ele>
        <time>2008-06-01T13:45:01Z</time>
      </trkpt>
      <trkpt lat="45.7941484" lon="8.5344672">
        <ele>239.5054932</ele>
        <time>2008-06-01T13:45:10Z</time>
      </trkpt>
      <trkpt lat="45.7940197" lon="8.5344458">
        <ele>237.1022949</ele>
        <time>2008-06-01T13:45:12Z</time>
      </trkpt>
      <trkpt lat="45.7938695" lon="8.5342526">
        <ele>231.3343506</ele>
        <time>2008-06-01T13:45:16Z</time>
      </trkpt>
      <trkpt lat="45.7938266" lon="8.5341454">
        <ele>229.8923340</ele>
        <time>2008-06-01T13:45:18Z</time>
      </trkpt>
      <trkpt lat="45.7937837" lon="8.5341454">
        <ele>229.8923340</ele>
        <time>2008-06-01T13:45:30Z</time>
      </trkpt>
      <trkpt lat="45.7937837" lon="8.5341454">
        <ele>229.8923340</ele>
        <time>2008-06-01T13:45:32Z</time>
      </trkpt>
      <trkpt lat="45.7936764" lon="8.5344458">
        <ele>227.0085449</ele>
        <time>2008-06-01T13:45:37Z</time>
      </trkpt>
      <trkpt lat="45.7936764" lon="8.5345531">
        <ele>225.0859375</ele>
        <time>2008-06-01T13:45:38Z</time>
      </trkpt>
      <trkpt lat="45.7936335" lon="8.5348964">
        <ele>220.7598877</ele>
        <time>2008-06-01T13:45:41Z</time>
      </trkpt>
      <trkpt lat="45.7935905" lon="8.5351539">
        <ele>219.3179932</ele>
        <time>2008-06-01T13:45:45Z</time>
      </trkpt>
      <trkpt lat="45.7934833" lon="8.5351539">
        <ele>218.3565674</ele>
        <time>2008-06-01T13:45:48Z</time>
      </trkpt>
      <trkpt lat="45.7933760" lon="8.5351324">
        <ele>217.3953857</ele>
        <time>2008-06-01T13:45:52Z</time>
      </trkpt>
      <trkpt lat="45.7932687" lon="8.5351324">
        <ele>216.4339600</ele>
        <time>2008-06-01T13:45:56Z</time>
      </trkpt>
      <trkpt lat="45.7932472" lon="8.5351539">
        <ele>215.9532471</ele>
        <time>2008-06-01T13:45:58Z</time>
      </trkpt>
      <trkpt lat="45.7930970" lon="8.5351110">
        <ele>215.4726563</ele>
        <time>2008-06-01T13:46:04Z</time>
      </trkpt>
      <trkpt lat="45.7928824" lon="8.5350895">
        <ele>212.5886230</ele>
        <time>2008-06-01T13:46:09Z</time>
      </trkpt>
      <trkpt lat="45.7927108" lon="8.5351753">
        <ele>211.1467285</ele>
        <time>2008-06-01T13:46:13Z</time>
      </trkpt>
      <trkpt lat="45.7926035" lon="8.5353899">
        <ele>210.6660156</ele>
        <time>2008-06-01T13:46:18Z</time>
      </trkpt>
      <trkpt lat="45.7924318" lon="8.5355401">
        <ele>209.7048340</ele>
        <time>2008-06-01T13:46:23Z</time>
      </trkpt>
      <trkpt lat="45.7918739" lon="8.5357976">
        <ele>205.8594971</ele>
        <time>2008-06-01T13:46:34Z</time>
      </trkpt>
      <trkpt lat="45.7912517" lon="8.5360551">
        <ele>203.4561768</ele>
        <time>2008-06-01T13:46:43Z</time>
      </trkpt>
      <trkpt lat="45.7910371" lon="8.5363126">
        <ele>202.9754639</ele>
        <time>2008-06-01T13:46:47Z</time>
      </trkpt>
      <trkpt lat="45.7909727" lon="8.5364628">
        <ele>202.4948730</ele>
        <time>2008-06-01T13:46:49Z</time>
      </trkpt>
      <trkpt lat="45.7909298" lon="8.5368919">
        <ele>202.0142822</ele>
        <time>2008-06-01T13:46:54Z</time>
      </trkpt>
      <trkpt lat="45.7909513" lon="8.5370421">
        <ele>202.0142822</ele>
        <time>2008-06-01T13:46:56Z</time>
      </trkpt>
      <trkpt lat="45.7909298" lon="8.5373855">
        <ele>202.9754639</ele>
        <time>2008-06-01T13:47:02Z</time>
      </trkpt>
      <trkpt lat="45.7908225" lon="8.5375571">
        <ele>202.9754639</ele>
        <time>2008-06-01T13:47:08Z</time>
      </trkpt>
      <trkpt lat="45.7905650" lon="8.5377717">
        <ele>202.9754639</ele>
        <time>2008-06-01T13:47:17Z</time>
      </trkpt>
      <trkpt lat="45.7901144" lon="8.5379648">
        <ele>202.4948730</ele>
        <time>2008-06-01T13:47:30Z</time>
      </trkpt>
      <trkpt lat="45.7898140" lon="8.5380292">
        <ele>204.4174805</ele>
        <time>2008-06-01T13:47:38Z</time>
      </trkpt>
      <trkpt lat="45.7890630" lon="8.5380721">
        <ele>204.8980713</ele>
        <time>2008-06-01T13:47:57Z</time>
      </trkpt>
      <trkpt lat="45.7885695" lon="8.5383725">
        <ele>205.3787842</ele>
        <time>2008-06-01T13:48:10Z</time>
      </trkpt>
      <trkpt lat="45.7874322" lon="8.5391879">
        <ele>203.9368896</ele>
        <time>2008-06-01T13:48:44Z</time>
      </trkpt>
      <trkpt lat="45.7868743" lon="8.5395312">
        <ele>203.9368896</ele>
        <time>2008-06-01T13:48:57Z</time>
      </trkpt>
      <trkpt lat="45.7863593" lon="8.5398531">
        <ele>203.4561768</ele>
        <time>2008-06-01T13:49:07Z</time>
      </trkpt>
      <trkpt lat="45.7858658" lon="8.5400891">
        <ele>201.0528564</ele>
        <time>2008-06-01T13:49:15Z</time>
      </trkpt>
      <trkpt lat="45.7852650" lon="8.5403252">
        <ele>198.6495361</ele>
        <time>2008-06-01T13:49:24Z</time>
      </trkpt>
      <trkpt lat="45.7847285" lon="8.5405612">
        <ele>194.3237305</ele>
        <time>2008-06-01T13:49:32Z</time>
      </trkpt>
      <trkpt lat="45.7846427" lon="8.5406685">
        <ele>192.8817139</ele>
        <time>2008-06-01T13:49:36Z</time>
      </trkpt>
      <trkpt lat="45.7846427" lon="8.5407114">
        <ele>192.8817139</ele>
        <time>2008-06-01T13:49:39Z</time>
      </trkpt>
      <trkpt lat="45.7847071" lon="8.5407543">
        <ele>191.9202881</ele>
        <time>2008-06-01T13:49:44Z</time>
      </trkpt>
      <trkpt lat="45.7851577" lon="8.5406470">
        <ele>191.9202881</ele>
        <time>2008-06-01T13:49:55Z</time>
      </trkpt>
      <trkpt lat="45.7856727" lon="8.5405827">
        <ele>192.8817139</ele>
        <time>2008-06-01T13:50:08Z</time>
      </trkpt>
      <trkpt lat="45.7860589" lon="8.5405397">
        <ele>191.4395752</ele>
        <time>2008-06-01T13:50:18Z</time>
      </trkpt>
      <trkpt lat="45.7862735" lon="8.5405397">
        <ele>191.4395752</ele>
        <time>2008-06-01T13:50:24Z</time>
      </trkpt>
      <trkpt lat="45.7866168" lon="8.5404110">
        <ele>193.3623047</ele>
        <time>2008-06-01T13:50:34Z</time>
      </trkpt>
      <trkpt lat="45.7868528" lon="8.5403037">
        <ele>193.8430176</ele>
        <time>2008-06-01T13:50:43Z</time>
      </trkpt>
      <trkpt lat="45.7869172" lon="8.5403037">
        <ele>193.8430176</ele>
        <time>2008-06-01T13:50:48Z</time>
      </trkpt>
      <trkpt lat="45.7869387" lon="8.5403681">
        <ele>193.3623047</ele>
        <time>2008-06-01T13:50:56Z</time>
      </trkpt>
    </trkseg>
  </trk>

</gpx>
